<?xml version="1.0" encoding="UTF-8" standalone="no" ?>
<gpx xmlns="http://www.topografix.com/GPX/1/1" xmlns:xsi="http://www.w3.org/2001/XMLSchema-instance" xsi:schemaLocation="http://www.topografix.com/GPX/1/1 http://www.topografix.com/GPX/1/1/gpx.xsd" version="1.1" creator="VisuGPX - https://www.visugpx.com">
  <metadata>
    <name>Rando de Fonsac matin</name>
    <desc><![CDATA[Rando de Fronsac le matin  le 12 11 2017]]></desc>
  </metadata>
  <trk>
    <name><![CDATA[Tracé 12 nov. 2017 9:33:19 AM]]></name>
    <trkseg>
      <trkpt lat="44.93251" lon="-0.2842">
        <ele>-14.9</ele>
        <time>2017-11-12T08:33:19Z</time>
      </trkpt>
      <trkpt lat="44.93242" lon="-0.28418">
        <ele>-14.8</ele>
        <time>2017-11-12T08:33:30Z</time>
      </trkpt>
      <trkpt lat="44.93236" lon="-0.28424">
        <ele>-15</ele>
        <time>2017-11-12T08:34:08Z</time>
      </trkpt>
      <trkpt lat="44.93234" lon="-0.28434">
        <ele>-15</ele>
        <time>2017-11-12T08:34:13Z</time>
      </trkpt>
      <trkpt lat="44.93231" lon="-0.28446">
        <ele>-14.9</ele>
        <time>2017-11-12T08:34:18Z</time>
      </trkpt>
      <trkpt lat="44.93229" lon="-0.28457">
        <ele>-14.9</ele>
        <time>2017-11-12T08:34:26Z</time>
      </trkpt>
      <trkpt lat="44.93232" lon="-0.28468">
        <ele>-14.9</ele>
        <time>2017-11-12T08:34:32Z</time>
      </trkpt>
      <trkpt lat="44.93235" lon="-0.28479">
        <ele>-14.9</ele>
        <time>2017-11-12T08:34:38Z</time>
      </trkpt>
      <trkpt lat="44.93234" lon="-0.28491">
        <ele>-14.9</ele>
        <time>2017-11-12T08:34:46Z</time>
      </trkpt>
      <trkpt lat="44.93234" lon="-0.28504">
        <ele>-14.7</ele>
        <time>2017-11-12T08:34:57Z</time>
      </trkpt>
      <trkpt lat="44.93231" lon="-0.28515">
        <ele>-14.6</ele>
        <time>2017-11-12T08:35:04Z</time>
      </trkpt>
      <trkpt lat="44.93231" lon="-0.28527">
        <ele>-14.5</ele>
        <time>2017-11-12T08:35:13Z</time>
      </trkpt>
      <trkpt lat="44.93229" lon="-0.28539">
        <ele>-14.4</ele>
        <time>2017-11-12T08:35:24Z</time>
      </trkpt>
      <trkpt lat="44.93228" lon="-0.28552">
        <ele>-14.3</ele>
        <time>2017-11-12T08:35:33Z</time>
      </trkpt>
      <trkpt lat="44.93224" lon="-0.28563">
        <ele>-14.2</ele>
        <time>2017-11-12T08:35:39Z</time>
      </trkpt>
      <trkpt lat="44.93219" lon="-0.28572">
        <ele>-13.9</ele>
        <time>2017-11-12T08:35:47Z</time>
      </trkpt>
      <trkpt lat="44.93213" lon="-0.28579">
        <ele>-13.5</ele>
        <time>2017-11-12T08:35:52Z</time>
      </trkpt>
      <trkpt lat="44.93208" lon="-0.28589">
        <ele>-12.6</ele>
        <time>2017-11-12T08:36:04Z</time>
      </trkpt>
      <trkpt lat="44.93202" lon="-0.28598">
        <ele>-12.2</ele>
        <time>2017-11-12T08:36:11Z</time>
      </trkpt>
      <trkpt lat="44.93195" lon="-0.28605">
        <ele>-11.7</ele>
        <time>2017-11-12T08:36:16Z</time>
      </trkpt>
      <trkpt lat="44.9319" lon="-0.28613">
        <ele>-10.9</ele>
        <time>2017-11-12T08:36:22Z</time>
      </trkpt>
      <trkpt lat="44.93183" lon="-0.28622">
        <ele>-9.9</ele>
        <time>2017-11-12T08:36:28Z</time>
      </trkpt>
      <trkpt lat="44.93177" lon="-0.28628">
        <ele>-9.1</ele>
        <time>2017-11-12T08:36:36Z</time>
      </trkpt>
      <trkpt lat="44.93171" lon="-0.28638">
        <ele>-8.6</ele>
        <time>2017-11-12T08:36:42Z</time>
      </trkpt>
      <trkpt lat="44.93167" lon="-0.28649">
        <ele>-7.9</ele>
        <time>2017-11-12T08:36:46Z</time>
      </trkpt>
      <trkpt lat="44.9317" lon="-0.28658">
        <ele>-7.4</ele>
        <time>2017-11-12T08:36:51Z</time>
      </trkpt>
      <trkpt lat="44.93172" lon="-0.2867">
        <ele>-6.7</ele>
        <time>2017-11-12T08:36:56Z</time>
      </trkpt>
      <trkpt lat="44.93177" lon="-0.28681">
        <ele>-6</ele>
        <time>2017-11-12T08:37:02Z</time>
      </trkpt>
      <trkpt lat="44.93183" lon="-0.28689">
        <ele>-5.4</ele>
        <time>2017-11-12T08:37:08Z</time>
      </trkpt>
      <trkpt lat="44.93189" lon="-0.28693">
        <ele>-4.4</ele>
        <time>2017-11-12T08:37:13Z</time>
      </trkpt>
      <trkpt lat="44.93198" lon="-0.28695">
        <ele>-3.7</ele>
        <time>2017-11-12T08:37:18Z</time>
      </trkpt>
      <trkpt lat="44.93206" lon="-0.28692">
        <ele>-3.1</ele>
        <time>2017-11-12T08:37:24Z</time>
      </trkpt>
      <trkpt lat="44.93213" lon="-0.28686">
        <ele>-2.6</ele>
        <time>2017-11-12T08:37:30Z</time>
      </trkpt>
      <trkpt lat="44.93217" lon="-0.28676">
        <ele>-2.2</ele>
        <time>2017-11-12T08:37:36Z</time>
      </trkpt>
      <trkpt lat="44.93224" lon="-0.28668">
        <ele>-2.3</ele>
        <time>2017-11-12T08:37:43Z</time>
      </trkpt>
      <trkpt lat="44.93232" lon="-0.28664">
        <ele>-2.8</ele>
        <time>2017-11-12T08:37:49Z</time>
      </trkpt>
      <trkpt lat="44.9324" lon="-0.2866">
        <ele>-2.4</ele>
        <time>2017-11-12T08:37:56Z</time>
      </trkpt>
      <trkpt lat="44.93248" lon="-0.28661">
        <ele>-2.5</ele>
        <time>2017-11-12T08:38:02Z</time>
      </trkpt>
      <trkpt lat="44.93255" lon="-0.28664">
        <ele>-2.3</ele>
        <time>2017-11-12T08:38:08Z</time>
      </trkpt>
      <trkpt lat="44.93264" lon="-0.28665">
        <ele>-2</ele>
        <time>2017-11-12T08:38:14Z</time>
      </trkpt>
      <trkpt lat="44.93273" lon="-0.28663">
        <ele>-1.9</ele>
        <time>2017-11-12T08:38:21Z</time>
      </trkpt>
      <trkpt lat="44.93281" lon="-0.28664">
        <ele>-2.1</ele>
        <time>2017-11-12T08:38:27Z</time>
      </trkpt>
      <trkpt lat="44.93289" lon="-0.28665">
        <ele>-1.6</ele>
        <time>2017-11-12T08:38:32Z</time>
      </trkpt>
      <trkpt lat="44.93297" lon="-0.28659">
        <ele>-4.1</ele>
        <time>2017-11-12T08:38:44Z</time>
      </trkpt>
      <trkpt lat="44.93305" lon="-0.28657">
        <ele>-3.1</ele>
        <time>2017-11-12T08:38:50Z</time>
      </trkpt>
      <trkpt lat="44.93313" lon="-0.28653">
        <ele>-1.5</ele>
        <time>2017-11-12T08:38:55Z</time>
      </trkpt>
      <trkpt lat="44.9332" lon="-0.28649">
        <ele>-2.1</ele>
        <time>2017-11-12T08:39:02Z</time>
      </trkpt>
      <trkpt lat="44.93328" lon="-0.28644">
        <ele>-0.2</ele>
        <time>2017-11-12T08:39:08Z</time>
      </trkpt>
      <trkpt lat="44.93336" lon="-0.28639">
        <ele>-1.7</ele>
        <time>2017-11-12T08:39:15Z</time>
      </trkpt>
      <trkpt lat="44.93343" lon="-0.28635">
        <ele>-5</ele>
        <time>2017-11-12T08:39:24Z</time>
      </trkpt>
      <trkpt lat="44.93351" lon="-0.28631">
        <ele>-5</ele>
        <time>2017-11-12T08:39:29Z</time>
      </trkpt>
      <trkpt lat="44.93357" lon="-0.28625">
        <ele>-3.5</ele>
        <time>2017-11-12T08:39:34Z</time>
      </trkpt>
      <trkpt lat="44.93365" lon="-0.28619">
        <ele>1.8</ele>
        <time>2017-11-12T08:39:40Z</time>
      </trkpt>
      <trkpt lat="44.93372" lon="-0.28612">
        <ele>2.7</ele>
        <time>2017-11-12T08:39:47Z</time>
      </trkpt>
      <trkpt lat="44.9338" lon="-0.28606">
        <ele>2.4</ele>
        <time>2017-11-12T08:39:54Z</time>
      </trkpt>
      <trkpt lat="44.93387" lon="-0.28601">
        <ele>-8.5</ele>
        <time>2017-11-12T08:40:02Z</time>
      </trkpt>
      <trkpt lat="44.93393" lon="-0.28593">
        <ele>-10</ele>
        <time>2017-11-12T08:40:10Z</time>
      </trkpt>
      <trkpt lat="44.93399" lon="-0.28584">
        <ele>-8.8</ele>
        <time>2017-11-12T08:40:19Z</time>
      </trkpt>
      <trkpt lat="44.93407" lon="-0.28578">
        <ele>-4.1</ele>
        <time>2017-11-12T08:40:26Z</time>
      </trkpt>
      <trkpt lat="44.93413" lon="-0.2857">
        <ele>-0.2</ele>
        <time>2017-11-12T08:40:34Z</time>
      </trkpt>
      <trkpt lat="44.9342" lon="-0.28566">
        <ele>46.3</ele>
        <time>2017-11-12T08:40:41Z</time>
      </trkpt>
      <trkpt lat="44.93428" lon="-0.28561">
        <ele>1.5</ele>
        <time>2017-11-12T08:40:50Z</time>
      </trkpt>
      <trkpt lat="44.93436" lon="-0.28555">
        <ele>1.8</ele>
        <time>2017-11-12T08:40:58Z</time>
      </trkpt>
      <trkpt lat="44.93443" lon="-0.28549">
        <ele>0.9</ele>
        <time>2017-11-12T08:41:04Z</time>
      </trkpt>
      <trkpt lat="44.93451" lon="-0.28544">
        <ele>4.4</ele>
        <time>2017-11-12T08:41:11Z</time>
      </trkpt>
      <trkpt lat="44.93458" lon="-0.28537">
        <ele>2.9</ele>
        <time>2017-11-12T08:41:17Z</time>
      </trkpt>
      <trkpt lat="44.93466" lon="-0.28531">
        <ele>-1.2</ele>
        <time>2017-11-12T08:41:25Z</time>
      </trkpt>
      <trkpt lat="44.93474" lon="-0.28526">
        <ele>-3.1</ele>
        <time>2017-11-12T08:41:33Z</time>
      </trkpt>
      <trkpt lat="44.93481" lon="-0.2852">
        <ele>-7.3</ele>
        <time>2017-11-12T08:41:41Z</time>
      </trkpt>
      <trkpt lat="44.93489" lon="-0.28516">
        <ele>-16.4</ele>
        <time>2017-11-12T08:41:55Z</time>
      </trkpt>
      <trkpt lat="44.93498" lon="-0.28514">
        <ele>-18.2</ele>
        <time>2017-11-12T08:42:03Z</time>
      </trkpt>
      <trkpt lat="44.93506" lon="-0.28511">
        <ele>-15.1</ele>
        <time>2017-11-12T08:42:10Z</time>
      </trkpt>
      <trkpt lat="44.93514" lon="-0.28506">
        <ele>-15.7</ele>
        <time>2017-11-12T08:42:17Z</time>
      </trkpt>
      <trkpt lat="44.93521" lon="-0.28503">
        <ele>-15.7</ele>
        <time>2017-11-12T08:42:23Z</time>
      </trkpt>
      <trkpt lat="44.93529" lon="-0.28499">
        <ele>-13.8</ele>
        <time>2017-11-12T08:42:29Z</time>
      </trkpt>
      <trkpt lat="44.93537" lon="-0.28496">
        <ele>-11.6</ele>
        <time>2017-11-12T08:42:35Z</time>
      </trkpt>
      <trkpt lat="44.93543" lon="-0.28493">
        <ele>-9.3</ele>
        <time>2017-11-12T08:42:41Z</time>
      </trkpt>
      <trkpt lat="44.93552" lon="-0.2849">
        <ele>-7.5</ele>
        <time>2017-11-12T08:42:47Z</time>
      </trkpt>
      <trkpt lat="44.93559" lon="-0.28485">
        <ele>-6.1</ele>
        <time>2017-11-12T08:42:52Z</time>
      </trkpt>
      <trkpt lat="44.93567" lon="-0.28481">
        <ele>-3.1</ele>
        <time>2017-11-12T08:42:57Z</time>
      </trkpt>
      <trkpt lat="44.93574" lon="-0.28477">
        <ele>-1.1</ele>
        <time>2017-11-12T08:43:04Z</time>
      </trkpt>
      <trkpt lat="44.93581" lon="-0.28473">
        <ele>-2.8</ele>
        <time>2017-11-12T08:43:10Z</time>
      </trkpt>
      <trkpt lat="44.93589" lon="-0.2847">
        <ele>-9.9</ele>
        <time>2017-11-12T08:43:20Z</time>
      </trkpt>
      <trkpt lat="44.93597" lon="-0.2847">
        <ele>-20.2</ele>
        <time>2017-11-12T08:43:28Z</time>
      </trkpt>
      <trkpt lat="44.93606" lon="-0.2847">
        <ele>-22.2</ele>
        <time>2017-11-12T08:43:36Z</time>
      </trkpt>
      <trkpt lat="44.93615" lon="-0.2847">
        <ele>-26.5</ele>
        <time>2017-11-12T08:43:44Z</time>
      </trkpt>
      <trkpt lat="44.93623" lon="-0.28469">
        <ele>-28.4</ele>
        <time>2017-11-12T08:43:55Z</time>
      </trkpt>
      <trkpt lat="44.93631" lon="-0.28471">
        <ele>-21.1</ele>
        <time>2017-11-12T08:44:03Z</time>
      </trkpt>
      <trkpt lat="44.93638" lon="-0.28478">
        <ele>-20.5</ele>
        <time>2017-11-12T08:44:11Z</time>
      </trkpt>
      <trkpt lat="44.93646" lon="-0.28482">
        <ele>-18.6</ele>
        <time>2017-11-12T08:44:18Z</time>
      </trkpt>
      <trkpt lat="44.93653" lon="-0.28489">
        <ele>-18.1</ele>
        <time>2017-11-12T08:44:25Z</time>
      </trkpt>
      <trkpt lat="44.9366" lon="-0.28497">
        <ele>-18.3</ele>
        <time>2017-11-12T08:44:33Z</time>
      </trkpt>
      <trkpt lat="44.93663" lon="-0.28501">
        <ele>-12.7</ele>
        <time>2017-11-12T08:45:21Z</time>
      </trkpt>
      <trkpt lat="44.93671" lon="-0.28506">
        <ele>-3.7</ele>
        <time>2017-11-12T08:45:26Z</time>
      </trkpt>
      <trkpt lat="44.93675" lon="-0.28516">
        <ele>-7.2</ele>
        <time>2017-11-12T08:45:36Z</time>
      </trkpt>
      <trkpt lat="44.93681" lon="-0.28525">
        <ele>-9.6</ele>
        <time>2017-11-12T08:45:46Z</time>
      </trkpt>
      <trkpt lat="44.93685" lon="-0.28535">
        <ele>-12.6</ele>
        <time>2017-11-12T08:45:55Z</time>
      </trkpt>
      <trkpt lat="44.93692" lon="-0.28541">
        <ele>-13.4</ele>
        <time>2017-11-12T08:46:01Z</time>
      </trkpt>
      <trkpt lat="44.93699" lon="-0.28547">
        <ele>-12.4</ele>
        <time>2017-11-12T08:46:09Z</time>
      </trkpt>
      <trkpt lat="44.93706" lon="-0.28554">
        <ele>-12.3</ele>
        <time>2017-11-12T08:46:17Z</time>
      </trkpt>
      <trkpt lat="44.93713" lon="-0.28561">
        <ele>-12.1</ele>
        <time>2017-11-12T08:46:25Z</time>
      </trkpt>
      <trkpt lat="44.93719" lon="-0.2857">
        <ele>-12.6</ele>
        <time>2017-11-12T08:46:34Z</time>
      </trkpt>
      <trkpt lat="44.93724" lon="-0.2858">
        <ele>-14.1</ele>
        <time>2017-11-12T08:46:44Z</time>
      </trkpt>
      <trkpt lat="44.9373" lon="-0.28589">
        <ele>-14.9</ele>
        <time>2017-11-12T08:46:53Z</time>
      </trkpt>
      <trkpt lat="44.93735" lon="-0.28599">
        <ele>-14.6</ele>
        <time>2017-11-12T08:47:02Z</time>
      </trkpt>
      <trkpt lat="44.9374" lon="-0.28609">
        <ele>-14.4</ele>
        <time>2017-11-12T08:47:10Z</time>
      </trkpt>
      <trkpt lat="44.93746" lon="-0.28617">
        <ele>-10.8</ele>
        <time>2017-11-12T08:47:19Z</time>
      </trkpt>
      <trkpt lat="44.93752" lon="-0.28627">
        <ele>-8.2</ele>
        <time>2017-11-12T08:47:27Z</time>
      </trkpt>
      <trkpt lat="44.93756" lon="-0.28636">
        <ele>-11.1</ele>
        <time>2017-11-12T08:47:35Z</time>
      </trkpt>
      <trkpt lat="44.93764" lon="-0.28644">
        <ele>-11.7</ele>
        <time>2017-11-12T08:47:42Z</time>
      </trkpt>
      <trkpt lat="44.9377" lon="-0.2865">
        <ele>-13</ele>
        <time>2017-11-12T08:47:51Z</time>
      </trkpt>
      <trkpt lat="44.93777" lon="-0.28658">
        <ele>-12.4</ele>
        <time>2017-11-12T08:48:00Z</time>
      </trkpt>
      <trkpt lat="44.93779" lon="-0.2867">
        <ele>-13.6</ele>
        <time>2017-11-12T08:48:09Z</time>
      </trkpt>
      <trkpt lat="44.93783" lon="-0.2868">
        <ele>-13.6</ele>
        <time>2017-11-12T08:48:18Z</time>
      </trkpt>
      <trkpt lat="44.93788" lon="-0.28688">
        <ele>-13.8</ele>
        <time>2017-11-12T08:48:25Z</time>
      </trkpt>
      <trkpt lat="44.93792" lon="-0.28699">
        <ele>-11.9</ele>
        <time>2017-11-12T08:48:34Z</time>
      </trkpt>
      <trkpt lat="44.93798" lon="-0.28707">
        <ele>-10.6</ele>
        <time>2017-11-12T08:48:41Z</time>
      </trkpt>
      <trkpt lat="44.93803" lon="-0.28717">
        <ele>-5.9</ele>
        <time>2017-11-12T08:48:48Z</time>
      </trkpt>
      <trkpt lat="44.93807" lon="-0.28727">
        <ele>-4.8</ele>
        <time>2017-11-12T08:48:55Z</time>
      </trkpt>
      <trkpt lat="44.93812" lon="-0.28737">
        <ele>-4.3</ele>
        <time>2017-11-12T08:49:02Z</time>
      </trkpt>
      <trkpt lat="44.93816" lon="-0.28746">
        <ele>-3.9</ele>
        <time>2017-11-12T08:49:10Z</time>
      </trkpt>
      <trkpt lat="44.93821" lon="-0.28756">
        <ele>-0.8</ele>
        <time>2017-11-12T08:49:20Z</time>
      </trkpt>
      <trkpt lat="44.93829" lon="-0.2876">
        <ele>2.2</ele>
        <time>2017-11-12T08:49:30Z</time>
      </trkpt>
      <trkpt lat="44.93836" lon="-0.28754">
        <ele>2.9</ele>
        <time>2017-11-12T08:49:39Z</time>
      </trkpt>
      <trkpt lat="44.93843" lon="-0.28747">
        <ele>0.8</ele>
        <time>2017-11-12T08:49:48Z</time>
      </trkpt>
      <trkpt lat="44.93852" lon="-0.28748">
        <ele>3</ele>
        <time>2017-11-12T08:50:13Z</time>
      </trkpt>
      <trkpt lat="44.93856" lon="-0.28758">
        <ele>1.7</ele>
        <time>2017-11-12T08:50:24Z</time>
      </trkpt>
      <trkpt lat="44.93859" lon="-0.28768">
        <ele>0.4</ele>
        <time>2017-11-12T08:50:31Z</time>
      </trkpt>
      <trkpt lat="44.93862" lon="-0.2878">
        <ele>-1</ele>
        <time>2017-11-12T08:50:39Z</time>
      </trkpt>
      <trkpt lat="44.93867" lon="-0.28789">
        <ele>-2.2</ele>
        <time>2017-11-12T08:50:46Z</time>
      </trkpt>
      <trkpt lat="44.93874" lon="-0.28797">
        <ele>-2.9</ele>
        <time>2017-11-12T08:50:52Z</time>
      </trkpt>
      <trkpt lat="44.93881" lon="-0.28803">
        <ele>-4.2</ele>
        <time>2017-11-12T08:50:59Z</time>
      </trkpt>
      <trkpt lat="44.93889" lon="-0.28808">
        <ele>-2.4</ele>
        <time>2017-11-12T08:51:07Z</time>
      </trkpt>
      <trkpt lat="44.93897" lon="-0.2881">
        <ele>-3.2</ele>
        <time>2017-11-12T08:51:15Z</time>
      </trkpt>
      <trkpt lat="44.93906" lon="-0.28814">
        <ele>-3.5</ele>
        <time>2017-11-12T08:51:23Z</time>
      </trkpt>
      <trkpt lat="44.93914" lon="-0.28814">
        <ele>-1.1</ele>
        <time>2017-11-12T08:51:32Z</time>
      </trkpt>
      <trkpt lat="44.93922" lon="-0.28817">
        <ele>-2.1</ele>
        <time>2017-11-12T08:51:39Z</time>
      </trkpt>
      <trkpt lat="44.9393" lon="-0.28819">
        <ele>-2.5</ele>
        <time>2017-11-12T08:51:46Z</time>
      </trkpt>
      <trkpt lat="44.93939" lon="-0.28821">
        <ele>-4.1</ele>
        <time>2017-11-12T08:51:54Z</time>
      </trkpt>
      <trkpt lat="44.93946" lon="-0.28826">
        <ele>-3.5</ele>
        <time>2017-11-12T08:52:25Z</time>
      </trkpt>
      <trkpt lat="44.93953" lon="-0.28833">
        <ele>-5.1</ele>
        <time>2017-11-12T08:52:34Z</time>
      </trkpt>
      <trkpt lat="44.9396" lon="-0.2884">
        <ele>-6.9</ele>
        <time>2017-11-12T08:52:41Z</time>
      </trkpt>
      <trkpt lat="44.93966" lon="-0.28846">
        <ele>-8.6</ele>
        <time>2017-11-12T08:52:48Z</time>
      </trkpt>
      <trkpt lat="44.93971" lon="-0.28854">
        <ele>-12.4</ele>
        <time>2017-11-12T08:52:56Z</time>
      </trkpt>
      <trkpt lat="44.93976" lon="-0.28863">
        <ele>-12.2</ele>
        <time>2017-11-12T08:53:03Z</time>
      </trkpt>
      <trkpt lat="44.93982" lon="-0.28873">
        <ele>-12.4</ele>
        <time>2017-11-12T08:53:11Z</time>
      </trkpt>
      <trkpt lat="44.93987" lon="-0.28881">
        <ele>-7.6</ele>
        <time>2017-11-12T08:53:20Z</time>
      </trkpt>
      <trkpt lat="44.93991" lon="-0.28888">
        <ele>-6.7</ele>
        <time>2017-11-12T08:55:09Z</time>
      </trkpt>
      <trkpt lat="44.94001" lon="-0.28889">
        <ele>11.7</ele>
        <time>2017-11-12T08:55:14Z</time>
      </trkpt>
      <trkpt lat="44.94007" lon="-0.28897">
        <ele>8.7</ele>
        <time>2017-11-12T08:55:23Z</time>
      </trkpt>
      <trkpt lat="44.94012" lon="-0.28907">
        <ele>3.9</ele>
        <time>2017-11-12T08:55:33Z</time>
      </trkpt>
      <trkpt lat="44.94016" lon="-0.28917">
        <ele>0.7</ele>
        <time>2017-11-12T08:55:42Z</time>
      </trkpt>
      <trkpt lat="44.94021" lon="-0.28927">
        <ele>-2.3</ele>
        <time>2017-11-12T08:55:51Z</time>
      </trkpt>
      <trkpt lat="44.94026" lon="-0.28936">
        <ele>-3.1</ele>
        <time>2017-11-12T08:55:58Z</time>
      </trkpt>
      <trkpt lat="44.94031" lon="-0.28946">
        <ele>-4.2</ele>
        <time>2017-11-12T08:56:07Z</time>
      </trkpt>
      <trkpt lat="44.94037" lon="-0.28956">
        <ele>-5.6</ele>
        <time>2017-11-12T08:56:15Z</time>
      </trkpt>
      <trkpt lat="44.94044" lon="-0.28964">
        <ele>-7.6</ele>
        <time>2017-11-12T08:56:21Z</time>
      </trkpt>
      <trkpt lat="44.94048" lon="-0.28974">
        <ele>-13.5</ele>
        <time>2017-11-12T08:56:28Z</time>
      </trkpt>
      <trkpt lat="44.94053" lon="-0.28984">
        <ele>-15.1</ele>
        <time>2017-11-12T08:56:39Z</time>
      </trkpt>
      <trkpt lat="44.94061" lon="-0.28986">
        <ele>-12.3</ele>
        <time>2017-11-12T08:56:50Z</time>
      </trkpt>
      <trkpt lat="44.94068" lon="-0.28987">
        <ele>-10.1</ele>
        <time>2017-11-12T08:57:00Z</time>
      </trkpt>
      <trkpt lat="44.94077" lon="-0.28989">
        <ele>-9.5</ele>
        <time>2017-11-12T08:57:09Z</time>
      </trkpt>
      <trkpt lat="44.94082" lon="-0.28998">
        <ele>-9.7</ele>
        <time>2017-11-12T08:57:16Z</time>
      </trkpt>
      <trkpt lat="44.94089" lon="-0.29005">
        <ele>-6.4</ele>
        <time>2017-11-12T08:57:24Z</time>
      </trkpt>
      <trkpt lat="44.94097" lon="-0.29008">
        <ele>-7</ele>
        <time>2017-11-12T08:57:40Z</time>
      </trkpt>
      <trkpt lat="44.94104" lon="-0.29012">
        <ele>-6</ele>
        <time>2017-11-12T08:57:48Z</time>
      </trkpt>
      <trkpt lat="44.94112" lon="-0.29014">
        <ele>-16.4</ele>
        <time>2017-11-12T08:58:02Z</time>
      </trkpt>
      <trkpt lat="44.94125" lon="-0.29">
        <ele>-18.7</ele>
        <time>2017-11-12T08:58:07Z</time>
      </trkpt>
      <trkpt lat="44.94135" lon="-0.28995">
        <ele>-20.6</ele>
        <time>2017-11-12T08:58:11Z</time>
      </trkpt>
      <trkpt lat="44.94148" lon="-0.28982">
        <ele>-29.7</ele>
        <time>2017-11-12T08:58:16Z</time>
      </trkpt>
      <trkpt lat="44.94156" lon="-0.28975">
        <ele>-37.2</ele>
        <time>2017-11-12T08:58:21Z</time>
      </trkpt>
      <trkpt lat="44.94164" lon="-0.2897">
        <ele>-40.3</ele>
        <time>2017-11-12T08:58:25Z</time>
      </trkpt>
      <trkpt lat="44.94168" lon="-0.28978">
        <ele>-44.4</ele>
        <time>2017-11-12T08:58:32Z</time>
      </trkpt>
      <trkpt lat="44.94164" lon="-0.28994">
        <ele>-44.2</ele>
        <time>2017-11-12T08:58:36Z</time>
      </trkpt>
      <trkpt lat="44.9417" lon="-0.29">
        <ele>-45.1</ele>
        <time>2017-11-12T08:58:41Z</time>
      </trkpt>
      <trkpt lat="44.94177" lon="-0.29008">
        <ele>-43.7</ele>
        <time>2017-11-12T08:58:47Z</time>
      </trkpt>
      <trkpt lat="44.94184" lon="-0.29014">
        <ele>-40.6</ele>
        <time>2017-11-12T08:58:52Z</time>
      </trkpt>
      <trkpt lat="44.9419" lon="-0.29022">
        <ele>-35.5</ele>
        <time>2017-11-12T08:58:58Z</time>
      </trkpt>
      <trkpt lat="44.94196" lon="-0.29031">
        <ele>-29.5</ele>
        <time>2017-11-12T08:59:05Z</time>
      </trkpt>
      <trkpt lat="44.942" lon="-0.2904">
        <ele>-24.6</ele>
        <time>2017-11-12T08:59:12Z</time>
      </trkpt>
      <trkpt lat="44.94193" lon="-0.29062">
        <ele>-18.6</ele>
        <time>2017-11-12T08:59:16Z</time>
      </trkpt>
      <trkpt lat="44.94194" lon="-0.29074">
        <ele>-11.5</ele>
        <time>2017-11-12T08:59:22Z</time>
      </trkpt>
      <trkpt lat="44.94201" lon="-0.29081">
        <ele>-5.1</ele>
        <time>2017-11-12T08:59:31Z</time>
      </trkpt>
      <trkpt lat="44.94201" lon="-0.29094">
        <ele>-4.4</ele>
        <time>2017-11-12T08:59:37Z</time>
      </trkpt>
      <trkpt lat="44.94209" lon="-0.29099">
        <ele>-2.6</ele>
        <time>2017-11-12T08:59:43Z</time>
      </trkpt>
      <trkpt lat="44.94215" lon="-0.29107">
        <ele>-2.6</ele>
        <time>2017-11-12T08:59:51Z</time>
      </trkpt>
      <trkpt lat="44.94221" lon="-0.29117">
        <ele>0.1</ele>
        <time>2017-11-12T08:59:58Z</time>
      </trkpt>
      <trkpt lat="44.94224" lon="-0.29128">
        <ele>1</ele>
        <time>2017-11-12T09:00:05Z</time>
      </trkpt>
      <trkpt lat="44.94229" lon="-0.29138">
        <ele>-2.9</ele>
        <time>2017-11-12T09:00:16Z</time>
      </trkpt>
      <trkpt lat="44.94235" lon="-0.29146">
        <ele>-5.1</ele>
        <time>2017-11-12T09:00:22Z</time>
      </trkpt>
      <trkpt lat="44.94241" lon="-0.29152">
        <ele>-9</ele>
        <time>2017-11-12T09:00:28Z</time>
      </trkpt>
      <trkpt lat="44.94247" lon="-0.29158">
        <ele>-9.9</ele>
        <time>2017-11-12T09:00:34Z</time>
      </trkpt>
      <trkpt lat="44.94255" lon="-0.29164">
        <ele>-12</ele>
        <time>2017-11-12T09:00:40Z</time>
      </trkpt>
      <trkpt lat="44.94262" lon="-0.29168">
        <ele>-15.1</ele>
        <time>2017-11-12T09:00:46Z</time>
      </trkpt>
      <trkpt lat="44.94269" lon="-0.29174">
        <ele>-16</ele>
        <time>2017-11-12T09:00:54Z</time>
      </trkpt>
      <trkpt lat="44.94276" lon="-0.29178">
        <ele>-14.8</ele>
        <time>2017-11-12T09:00:59Z</time>
      </trkpt>
      <trkpt lat="44.94285" lon="-0.29182">
        <ele>-16.6</ele>
        <time>2017-11-12T09:01:24Z</time>
      </trkpt>
      <trkpt lat="44.94292" lon="-0.29188">
        <ele>-14.2</ele>
        <time>2017-11-12T09:01:30Z</time>
      </trkpt>
      <trkpt lat="44.94297" lon="-0.29196">
        <ele>-16.2</ele>
        <time>2017-11-12T09:01:38Z</time>
      </trkpt>
      <trkpt lat="44.94305" lon="-0.29201">
        <ele>-15</ele>
        <time>2017-11-12T09:01:45Z</time>
      </trkpt>
      <trkpt lat="44.94312" lon="-0.29208">
        <ele>-15.9</ele>
        <time>2017-11-12T09:01:59Z</time>
      </trkpt>
      <trkpt lat="44.94317" lon="-0.29216">
        <ele>-16.1</ele>
        <time>2017-11-12T09:02:05Z</time>
      </trkpt>
      <trkpt lat="44.94324" lon="-0.29224">
        <ele>-14.6</ele>
        <time>2017-11-12T09:02:12Z</time>
      </trkpt>
      <trkpt lat="44.94329" lon="-0.29231">
        <ele>-14.4</ele>
        <time>2017-11-12T09:02:18Z</time>
      </trkpt>
      <trkpt lat="44.94336" lon="-0.29237">
        <ele>-13</ele>
        <time>2017-11-12T09:02:24Z</time>
      </trkpt>
      <trkpt lat="44.94343" lon="-0.29242">
        <ele>-10.7</ele>
        <time>2017-11-12T09:02:30Z</time>
      </trkpt>
      <trkpt lat="44.9435" lon="-0.29249">
        <ele>-9.2</ele>
        <time>2017-11-12T09:02:36Z</time>
      </trkpt>
      <trkpt lat="44.94357" lon="-0.29255">
        <ele>-8.8</ele>
        <time>2017-11-12T09:02:42Z</time>
      </trkpt>
      <trkpt lat="44.94364" lon="-0.29263">
        <ele>-9.5</ele>
        <time>2017-11-12T09:02:48Z</time>
      </trkpt>
      <trkpt lat="44.94372" lon="-0.29269">
        <ele>-11.2</ele>
        <time>2017-11-12T09:02:55Z</time>
      </trkpt>
      <trkpt lat="44.94378" lon="-0.29276">
        <ele>-11.9</ele>
        <time>2017-11-12T09:03:01Z</time>
      </trkpt>
      <trkpt lat="44.94385" lon="-0.29283">
        <ele>-10.1</ele>
        <time>2017-11-12T09:03:09Z</time>
      </trkpt>
      <trkpt lat="44.94393" lon="-0.2929">
        <ele>-8.6</ele>
        <time>2017-11-12T09:03:17Z</time>
      </trkpt>
      <trkpt lat="44.944" lon="-0.29296">
        <ele>-7.4</ele>
        <time>2017-11-12T09:03:23Z</time>
      </trkpt>
      <trkpt lat="44.94407" lon="-0.29301">
        <ele>-6.8</ele>
        <time>2017-11-12T09:03:28Z</time>
      </trkpt>
      <trkpt lat="44.94414" lon="-0.29307">
        <ele>-6.6</ele>
        <time>2017-11-12T09:03:34Z</time>
      </trkpt>
      <trkpt lat="44.9442" lon="-0.29316">
        <ele>-3.9</ele>
        <time>2017-11-12T09:03:43Z</time>
      </trkpt>
      <trkpt lat="44.94425" lon="-0.29326">
        <ele>-6.4</ele>
        <time>2017-11-12T09:03:48Z</time>
      </trkpt>
      <trkpt lat="44.94429" lon="-0.29337">
        <ele>-11.3</ele>
        <time>2017-11-12T09:03:55Z</time>
      </trkpt>
      <trkpt lat="44.94435" lon="-0.29345">
        <ele>-13.6</ele>
        <time>2017-11-12T09:04:03Z</time>
      </trkpt>
      <trkpt lat="44.94442" lon="-0.2935">
        <ele>-11.6</ele>
        <time>2017-11-12T09:04:10Z</time>
      </trkpt>
      <trkpt lat="44.94448" lon="-0.29358">
        <ele>-11.4</ele>
        <time>2017-11-12T09:04:19Z</time>
      </trkpt>
      <trkpt lat="44.94451" lon="-0.2937">
        <ele>-9.7</ele>
        <time>2017-11-12T09:04:29Z</time>
      </trkpt>
      <trkpt lat="44.94451" lon="-0.29382">
        <ele>-9.7</ele>
        <time>2017-11-12T09:04:38Z</time>
      </trkpt>
      <trkpt lat="44.94456" lon="-0.29391">
        <ele>-7.1</ele>
        <time>2017-11-12T09:04:46Z</time>
      </trkpt>
      <trkpt lat="44.9446" lon="-0.29402">
        <ele>-1.7</ele>
        <time>2017-11-12T09:04:54Z</time>
      </trkpt>
      <trkpt lat="44.94466" lon="-0.29412">
        <ele>-1.8</ele>
        <time>2017-11-12T09:05:03Z</time>
      </trkpt>
      <trkpt lat="44.9447" lon="-0.29423">
        <ele>-3</ele>
        <time>2017-11-12T09:05:13Z</time>
      </trkpt>
      <trkpt lat="44.94477" lon="-0.29427">
        <ele>-6.7</ele>
        <time>2017-11-12T09:05:20Z</time>
      </trkpt>
      <trkpt lat="44.94482" lon="-0.29438">
        <ele>-6.1</ele>
        <time>2017-11-12T09:05:29Z</time>
      </trkpt>
      <trkpt lat="44.94487" lon="-0.29448">
        <ele>-5</ele>
        <time>2017-11-12T09:05:39Z</time>
      </trkpt>
      <trkpt lat="44.94489" lon="-0.29459">
        <ele>2.9</ele>
        <time>2017-11-12T09:05:50Z</time>
      </trkpt>
      <trkpt lat="44.94494" lon="-0.29468">
        <ele>7.5</ele>
        <time>2017-11-12T09:05:57Z</time>
      </trkpt>
      <trkpt lat="44.94499" lon="-0.29477">
        <ele>10.5</ele>
        <time>2017-11-12T09:06:05Z</time>
      </trkpt>
      <trkpt lat="44.94504" lon="-0.29487">
        <ele>11.5</ele>
        <time>2017-11-12T09:06:13Z</time>
      </trkpt>
      <trkpt lat="44.94508" lon="-0.29496">
        <ele>9.7</ele>
        <time>2017-11-12T09:06:20Z</time>
      </trkpt>
      <trkpt lat="44.94512" lon="-0.29507">
        <ele>9.1</ele>
        <time>2017-11-12T09:06:32Z</time>
      </trkpt>
      <trkpt lat="44.94513" lon="-0.2952">
        <ele>3.5</ele>
        <time>2017-11-12T09:06:42Z</time>
      </trkpt>
      <trkpt lat="44.94517" lon="-0.2953">
        <ele>2.6</ele>
        <time>2017-11-12T09:06:52Z</time>
      </trkpt>
      <trkpt lat="44.94521" lon="-0.2954">
        <ele>1.8</ele>
        <time>2017-11-12T09:07:11Z</time>
      </trkpt>
      <trkpt lat="44.94514" lon="-0.29547">
        <ele>18.6</ele>
        <time>2017-11-12T09:09:25Z</time>
      </trkpt>
      <trkpt lat="44.94506" lon="-0.29552">
        <ele>20.4</ele>
        <time>2017-11-12T09:09:33Z</time>
      </trkpt>
      <trkpt lat="44.945" lon="-0.2956">
        <ele>19.4</ele>
        <time>2017-11-12T09:09:41Z</time>
      </trkpt>
      <trkpt lat="44.94495" lon="-0.2957">
        <ele>14.8</ele>
        <time>2017-11-12T09:09:48Z</time>
      </trkpt>
      <trkpt lat="44.94497" lon="-0.29582">
        <ele>0.8</ele>
        <time>2017-11-12T09:09:57Z</time>
      </trkpt>
      <trkpt lat="44.94491" lon="-0.2959">
        <ele>-2.7</ele>
        <time>2017-11-12T09:10:04Z</time>
      </trkpt>
      <trkpt lat="44.94485" lon="-0.29599">
        <ele>-6.7</ele>
        <time>2017-11-12T09:10:10Z</time>
      </trkpt>
      <trkpt lat="44.94493" lon="-0.29601">
        <ele>-76</ele>
        <time>2017-11-12T09:10:53Z</time>
      </trkpt>
      <trkpt lat="44.945" lon="-0.29608">
        <ele>-130.5</ele>
        <time>2017-11-12T09:11:07Z</time>
      </trkpt>
      <trkpt lat="44.94495" lon="-0.29619">
        <ele>-133.7</ele>
        <time>2017-11-12T09:11:12Z</time>
      </trkpt>
      <trkpt lat="44.94487" lon="-0.29628">
        <ele>-132.5</ele>
        <time>2017-11-12T09:11:16Z</time>
      </trkpt>
      <trkpt lat="44.94482" lon="-0.29639">
        <ele>-126</ele>
        <time>2017-11-12T09:11:20Z</time>
      </trkpt>
      <trkpt lat="44.94475" lon="-0.2965">
        <ele>-119.5</ele>
        <time>2017-11-12T09:11:25Z</time>
      </trkpt>
      <trkpt lat="44.94471" lon="-0.29661">
        <ele>-103.3</ele>
        <time>2017-11-12T09:11:30Z</time>
      </trkpt>
      <trkpt lat="44.94466" lon="-0.29672">
        <ele>-85.7</ele>
        <time>2017-11-12T09:11:34Z</time>
      </trkpt>
      <trkpt lat="44.94451" lon="-0.29682">
        <ele>-60.8</ele>
        <time>2017-11-12T09:11:39Z</time>
      </trkpt>
      <trkpt lat="44.94441" lon="-0.29693">
        <ele>-45.2</ele>
        <time>2017-11-12T09:11:43Z</time>
      </trkpt>
      <trkpt lat="44.94433" lon="-0.29706">
        <ele>-29.9</ele>
        <time>2017-11-12T09:11:47Z</time>
      </trkpt>
      <trkpt lat="44.94425" lon="-0.29716">
        <ele>-20.7</ele>
        <time>2017-11-12T09:11:51Z</time>
      </trkpt>
      <trkpt lat="44.94416" lon="-0.29723">
        <ele>-10.7</ele>
        <time>2017-11-12T09:11:55Z</time>
      </trkpt>
      <trkpt lat="44.94409" lon="-0.2973">
        <ele>1.8</ele>
        <time>2017-11-12T09:12:00Z</time>
      </trkpt>
      <trkpt lat="44.94403" lon="-0.29738">
        <ele>5.8</ele>
        <time>2017-11-12T09:12:05Z</time>
      </trkpt>
      <trkpt lat="44.94399" lon="-0.29749">
        <ele>8</ele>
        <time>2017-11-12T09:12:12Z</time>
      </trkpt>
      <trkpt lat="44.94398" lon="-0.29761">
        <ele>9.4</ele>
        <time>2017-11-12T09:12:18Z</time>
      </trkpt>
      <trkpt lat="44.94398" lon="-0.29772">
        <ele>-3.5</ele>
        <time>2017-11-12T09:12:32Z</time>
      </trkpt>
      <trkpt lat="44.94395" lon="-0.29784">
        <ele>-4.4</ele>
        <time>2017-11-12T09:12:38Z</time>
      </trkpt>
      <trkpt lat="44.94395" lon="-0.29794">
        <ele>-7.7</ele>
        <time>2017-11-12T09:12:43Z</time>
      </trkpt>
      <trkpt lat="44.94392" lon="-0.29804">
        <ele>-8.3</ele>
        <time>2017-11-12T09:12:49Z</time>
      </trkpt>
      <trkpt lat="44.94389" lon="-0.29815">
        <ele>-8.7</ele>
        <time>2017-11-12T09:12:55Z</time>
      </trkpt>
      <trkpt lat="44.94381" lon="-0.29822">
        <ele>-2.1</ele>
        <time>2017-11-12T09:13:50Z</time>
      </trkpt>
      <trkpt lat="44.94379" lon="-0.29833">
        <ele>12</ele>
        <time>2017-11-12T09:14:36Z</time>
      </trkpt>
      <trkpt lat="44.94374" lon="-0.29841">
        <ele>5.4</ele>
        <time>2017-11-12T09:14:42Z</time>
      </trkpt>
      <trkpt lat="44.94367" lon="-0.29849">
        <ele>5.2</ele>
        <time>2017-11-12T09:14:47Z</time>
      </trkpt>
      <trkpt lat="44.9436" lon="-0.29854">
        <ele>5.6</ele>
        <time>2017-11-12T09:14:55Z</time>
      </trkpt>
      <trkpt lat="44.94354" lon="-0.2986">
        <ele>6.7</ele>
        <time>2017-11-12T09:15:00Z</time>
      </trkpt>
      <trkpt lat="44.94347" lon="-0.29868">
        <ele>7.6</ele>
        <time>2017-11-12T09:15:06Z</time>
      </trkpt>
      <trkpt lat="44.94342" lon="-0.29876">
        <ele>7.5</ele>
        <time>2017-11-12T09:15:13Z</time>
      </trkpt>
      <trkpt lat="44.94336" lon="-0.29886">
        <ele>4.5</ele>
        <time>2017-11-12T09:15:20Z</time>
      </trkpt>
      <trkpt lat="44.94331" lon="-0.29895">
        <ele>4.2</ele>
        <time>2017-11-12T09:15:27Z</time>
      </trkpt>
      <trkpt lat="44.94326" lon="-0.29904">
        <ele>2.1</ele>
        <time>2017-11-12T09:15:34Z</time>
      </trkpt>
      <trkpt lat="44.94319" lon="-0.29911">
        <ele>-2.1</ele>
        <time>2017-11-12T09:15:42Z</time>
      </trkpt>
      <trkpt lat="44.94314" lon="-0.2992">
        <ele>-3.9</ele>
        <time>2017-11-12T09:15:49Z</time>
      </trkpt>
      <trkpt lat="44.94307" lon="-0.29926">
        <ele>-18.2</ele>
        <time>2017-11-12T09:16:06Z</time>
      </trkpt>
      <trkpt lat="44.94303" lon="-0.29935">
        <ele>-19.6</ele>
        <time>2017-11-12T09:16:12Z</time>
      </trkpt>
      <trkpt lat="44.94299" lon="-0.29945">
        <ele>-17.3</ele>
        <time>2017-11-12T09:16:17Z</time>
      </trkpt>
      <trkpt lat="44.94294" lon="-0.29958">
        <ele>-11.9</ele>
        <time>2017-11-12T09:16:22Z</time>
      </trkpt>
      <trkpt lat="44.9429" lon="-0.29967">
        <ele>-9.4</ele>
        <time>2017-11-12T09:16:27Z</time>
      </trkpt>
      <trkpt lat="44.94285" lon="-0.29976">
        <ele>-7.7</ele>
        <time>2017-11-12T09:16:33Z</time>
      </trkpt>
      <trkpt lat="44.94281" lon="-0.29988">
        <ele>-4.7</ele>
        <time>2017-11-12T09:16:39Z</time>
      </trkpt>
      <trkpt lat="44.94279" lon="-0.29999">
        <ele>-3</ele>
        <time>2017-11-12T09:16:45Z</time>
      </trkpt>
      <trkpt lat="44.94276" lon="-0.30011">
        <ele>1.7</ele>
        <time>2017-11-12T09:16:52Z</time>
      </trkpt>
      <trkpt lat="44.94273" lon="-0.30022">
        <ele>5.5</ele>
        <time>2017-11-12T09:17:00Z</time>
      </trkpt>
      <trkpt lat="44.94274" lon="-0.30035">
        <ele>10.9</ele>
        <time>2017-11-12T09:17:10Z</time>
      </trkpt>
      <trkpt lat="44.9427" lon="-0.30044">
        <ele>13</ele>
        <time>2017-11-12T09:17:17Z</time>
      </trkpt>
      <trkpt lat="44.94268" lon="-0.30054">
        <ele>15.6</ele>
        <time>2017-11-12T09:17:23Z</time>
      </trkpt>
      <trkpt lat="44.94265" lon="-0.30066">
        <ele>18.5</ele>
        <time>2017-11-12T09:17:30Z</time>
      </trkpt>
      <trkpt lat="44.94264" lon="-0.30078">
        <ele>15.7</ele>
        <time>2017-11-12T09:17:40Z</time>
      </trkpt>
      <trkpt lat="44.94264" lon="-0.3009">
        <ele>15</ele>
        <time>2017-11-12T09:17:48Z</time>
      </trkpt>
      <trkpt lat="44.94261" lon="-0.30101">
        <ele>14.1</ele>
        <time>2017-11-12T09:17:58Z</time>
      </trkpt>
      <trkpt lat="44.9426" lon="-0.30112">
        <ele>12.9</ele>
        <time>2017-11-12T09:18:06Z</time>
      </trkpt>
      <trkpt lat="44.94266" lon="-0.3012">
        <ele>5.2</ele>
        <time>2017-11-12T09:18:15Z</time>
      </trkpt>
      <trkpt lat="44.94269" lon="-0.30132">
        <ele>-5.2</ele>
        <time>2017-11-12T09:18:32Z</time>
      </trkpt>
      <trkpt lat="44.94267" lon="-0.30144">
        <ele>-7.2</ele>
        <time>2017-11-12T09:18:42Z</time>
      </trkpt>
      <trkpt lat="44.94265" lon="-0.30157">
        <ele>-2.6</ele>
        <time>2017-11-12T09:18:46Z</time>
      </trkpt>
      <trkpt lat="44.94263" lon="-0.30169">
        <ele>2.6</ele>
        <time>2017-11-12T09:18:50Z</time>
      </trkpt>
      <trkpt lat="44.94264" lon="-0.30182">
        <ele>10.3</ele>
        <time>2017-11-12T09:18:57Z</time>
      </trkpt>
      <trkpt lat="44.94269" lon="-0.30192">
        <ele>14.6</ele>
        <time>2017-11-12T09:19:04Z</time>
      </trkpt>
      <trkpt lat="44.94273" lon="-0.30201">
        <ele>16.6</ele>
        <time>2017-11-12T09:19:11Z</time>
      </trkpt>
      <trkpt lat="44.9428" lon="-0.30209">
        <ele>15.9</ele>
        <time>2017-11-12T09:19:17Z</time>
      </trkpt>
      <trkpt lat="44.94285" lon="-0.30219">
        <ele>9.7</ele>
        <time>2017-11-12T09:19:22Z</time>
      </trkpt>
      <trkpt lat="44.94291" lon="-0.30228">
        <ele>7.6</ele>
        <time>2017-11-12T09:19:34Z</time>
      </trkpt>
      <trkpt lat="44.94299" lon="-0.30233">
        <ele>15.6</ele>
        <time>2017-11-12T09:19:44Z</time>
      </trkpt>
      <trkpt lat="44.94307" lon="-0.30234">
        <ele>22.5</ele>
        <time>2017-11-12T09:21:48Z</time>
      </trkpt>
      <trkpt lat="44.94313" lon="-0.30241">
        <ele>19.4</ele>
        <time>2017-11-12T09:22:00Z</time>
      </trkpt>
      <trkpt lat="44.94321" lon="-0.30247">
        <ele>20.7</ele>
        <time>2017-11-12T09:22:07Z</time>
      </trkpt>
      <trkpt lat="44.94327" lon="-0.30253">
        <ele>19.1</ele>
        <time>2017-11-12T09:22:15Z</time>
      </trkpt>
      <trkpt lat="44.94334" lon="-0.30261">
        <ele>18.9</ele>
        <time>2017-11-12T09:22:22Z</time>
      </trkpt>
      <trkpt lat="44.94341" lon="-0.30268">
        <ele>19.4</ele>
        <time>2017-11-12T09:22:28Z</time>
      </trkpt>
      <trkpt lat="44.94348" lon="-0.30275">
        <ele>24</ele>
        <time>2017-11-12T09:22:40Z</time>
      </trkpt>
      <trkpt lat="44.94354" lon="-0.30283">
        <ele>24.4</ele>
        <time>2017-11-12T09:22:48Z</time>
      </trkpt>
      <trkpt lat="44.94358" lon="-0.30295">
        <ele>22.6</ele>
        <time>2017-11-12T09:22:58Z</time>
      </trkpt>
      <trkpt lat="44.94361" lon="-0.30306">
        <ele>22.1</ele>
        <time>2017-11-12T09:23:06Z</time>
      </trkpt>
      <trkpt lat="44.94367" lon="-0.30315">
        <ele>21</ele>
        <time>2017-11-12T09:23:14Z</time>
      </trkpt>
      <trkpt lat="44.94371" lon="-0.30325">
        <ele>19.4</ele>
        <time>2017-11-12T09:23:22Z</time>
      </trkpt>
      <trkpt lat="44.94376" lon="-0.30335">
        <ele>18.3</ele>
        <time>2017-11-12T09:23:31Z</time>
      </trkpt>
      <trkpt lat="44.94382" lon="-0.30345">
        <ele>17.1</ele>
        <time>2017-11-12T09:23:39Z</time>
      </trkpt>
      <trkpt lat="44.94386" lon="-0.30355">
        <ele>17.4</ele>
        <time>2017-11-12T09:23:47Z</time>
      </trkpt>
      <trkpt lat="44.94394" lon="-0.30359">
        <ele>12.9</ele>
        <time>2017-11-12T09:23:52Z</time>
      </trkpt>
      <trkpt lat="44.94402" lon="-0.30359">
        <ele>12.7</ele>
        <time>2017-11-12T09:23:58Z</time>
      </trkpt>
      <trkpt lat="44.9441" lon="-0.30357">
        <ele>13.9</ele>
        <time>2017-11-12T09:24:04Z</time>
      </trkpt>
      <trkpt lat="44.94419" lon="-0.30356">
        <ele>16.6</ele>
        <time>2017-11-12T09:24:12Z</time>
      </trkpt>
      <trkpt lat="44.94427" lon="-0.30352">
        <ele>17.8</ele>
        <time>2017-11-12T09:24:20Z</time>
      </trkpt>
      <trkpt lat="44.94435" lon="-0.30351">
        <ele>21</ele>
        <time>2017-11-12T09:24:29Z</time>
      </trkpt>
      <trkpt lat="44.94443" lon="-0.30352">
        <ele>23.4</ele>
        <time>2017-11-12T09:24:39Z</time>
      </trkpt>
      <trkpt lat="44.9445" lon="-0.30357">
        <ele>21.5</ele>
        <time>2017-11-12T09:24:53Z</time>
      </trkpt>
      <trkpt lat="44.94458" lon="-0.30362">
        <ele>23</ele>
        <time>2017-11-12T09:25:01Z</time>
      </trkpt>
      <trkpt lat="44.94466" lon="-0.30365">
        <ele>26.3</ele>
        <time>2017-11-12T09:25:18Z</time>
      </trkpt>
      <trkpt lat="44.94472" lon="-0.30372">
        <ele>28.2</ele>
        <time>2017-11-12T09:25:23Z</time>
      </trkpt>
      <trkpt lat="44.94479" lon="-0.30378">
        <ele>28.2</ele>
        <time>2017-11-12T09:25:29Z</time>
      </trkpt>
      <trkpt lat="44.94486" lon="-0.30385">
        <ele>28.1</ele>
        <time>2017-11-12T09:25:36Z</time>
      </trkpt>
      <trkpt lat="44.94493" lon="-0.30392">
        <ele>26.2</ele>
        <time>2017-11-12T09:25:44Z</time>
      </trkpt>
      <trkpt lat="44.94501" lon="-0.30397">
        <ele>23.4</ele>
        <time>2017-11-12T09:25:53Z</time>
      </trkpt>
      <trkpt lat="44.94508" lon="-0.304">
        <ele>22.1</ele>
        <time>2017-11-12T09:26:01Z</time>
      </trkpt>
      <trkpt lat="44.94517" lon="-0.30403">
        <ele>22.7</ele>
        <time>2017-11-12T09:26:09Z</time>
      </trkpt>
      <trkpt lat="44.94525" lon="-0.30405">
        <ele>23.1</ele>
        <time>2017-11-12T09:26:17Z</time>
      </trkpt>
      <trkpt lat="44.94534" lon="-0.30405">
        <ele>23.2</ele>
        <time>2017-11-12T09:26:25Z</time>
      </trkpt>
      <trkpt lat="44.94542" lon="-0.30406">
        <ele>25.1</ele>
        <time>2017-11-12T09:26:31Z</time>
      </trkpt>
      <trkpt lat="44.9455" lon="-0.30404">
        <ele>25.4</ele>
        <time>2017-11-12T09:26:37Z</time>
      </trkpt>
      <trkpt lat="44.94559" lon="-0.30403">
        <ele>25.6</ele>
        <time>2017-11-12T09:26:45Z</time>
      </trkpt>
      <trkpt lat="44.94567" lon="-0.30402">
        <ele>24.7</ele>
        <time>2017-11-12T09:26:53Z</time>
      </trkpt>
      <trkpt lat="44.94575" lon="-0.30405">
        <ele>28.3</ele>
        <time>2017-11-12T09:27:03Z</time>
      </trkpt>
      <trkpt lat="44.94583" lon="-0.30405">
        <ele>30.2</ele>
        <time>2017-11-12T09:27:11Z</time>
      </trkpt>
      <trkpt lat="44.94592" lon="-0.30405">
        <ele>28.3</ele>
        <time>2017-11-12T09:27:20Z</time>
      </trkpt>
      <trkpt lat="44.94599" lon="-0.30405">
        <ele>26.5</ele>
        <time>2017-11-12T09:27:26Z</time>
      </trkpt>
      <trkpt lat="44.94607" lon="-0.30406">
        <ele>22.9</ele>
        <time>2017-11-12T09:27:33Z</time>
      </trkpt>
      <trkpt lat="44.94615" lon="-0.30411">
        <ele>21.4</ele>
        <time>2017-11-12T09:27:40Z</time>
      </trkpt>
      <trkpt lat="44.94623" lon="-0.30416">
        <ele>20.1</ele>
        <time>2017-11-12T09:27:47Z</time>
      </trkpt>
      <trkpt lat="44.9463" lon="-0.30422">
        <ele>20.2</ele>
        <time>2017-11-12T09:27:54Z</time>
      </trkpt>
      <trkpt lat="44.94637" lon="-0.30428">
        <ele>20.4</ele>
        <time>2017-11-12T09:28:01Z</time>
      </trkpt>
      <trkpt lat="44.94645" lon="-0.30432">
        <ele>22</ele>
        <time>2017-11-12T09:28:06Z</time>
      </trkpt>
      <trkpt lat="44.94652" lon="-0.30438">
        <ele>22.6</ele>
        <time>2017-11-12T09:28:12Z</time>
      </trkpt>
      <trkpt lat="44.94658" lon="-0.30443">
        <ele>22.9</ele>
        <time>2017-11-12T09:28:18Z</time>
      </trkpt>
      <trkpt lat="44.94666" lon="-0.30449">
        <ele>23.5</ele>
        <time>2017-11-12T09:28:25Z</time>
      </trkpt>
      <trkpt lat="44.94673" lon="-0.30456">
        <ele>22.9</ele>
        <time>2017-11-12T09:28:32Z</time>
      </trkpt>
      <trkpt lat="44.9468" lon="-0.30463">
        <ele>24.1</ele>
        <time>2017-11-12T09:28:39Z</time>
      </trkpt>
      <trkpt lat="44.94686" lon="-0.3047">
        <ele>25</ele>
        <time>2017-11-12T09:28:47Z</time>
      </trkpt>
      <trkpt lat="44.94693" lon="-0.30477">
        <ele>25.5</ele>
        <time>2017-11-12T09:28:55Z</time>
      </trkpt>
      <trkpt lat="44.947" lon="-0.30484">
        <ele>24.8</ele>
        <time>2017-11-12T09:29:03Z</time>
      </trkpt>
      <trkpt lat="44.94707" lon="-0.30491">
        <ele>24.6</ele>
        <time>2017-11-12T09:29:10Z</time>
      </trkpt>
      <trkpt lat="44.94715" lon="-0.30497">
        <ele>25.3</ele>
        <time>2017-11-12T09:29:16Z</time>
      </trkpt>
      <trkpt lat="44.94722" lon="-0.30503">
        <ele>25.9</ele>
        <time>2017-11-12T09:29:23Z</time>
      </trkpt>
      <trkpt lat="44.94727" lon="-0.30513">
        <ele>26.3</ele>
        <time>2017-11-12T09:29:32Z</time>
      </trkpt>
      <trkpt lat="44.94734" lon="-0.30519">
        <ele>25.6</ele>
        <time>2017-11-12T09:29:39Z</time>
      </trkpt>
      <trkpt lat="44.94741" lon="-0.30525">
        <ele>25.7</ele>
        <time>2017-11-12T09:29:45Z</time>
      </trkpt>
      <trkpt lat="44.94748" lon="-0.30532">
        <ele>25.6</ele>
        <time>2017-11-12T09:29:52Z</time>
      </trkpt>
      <trkpt lat="44.94755" lon="-0.30538">
        <ele>25.4</ele>
        <time>2017-11-12T09:29:59Z</time>
      </trkpt>
      <trkpt lat="44.94763" lon="-0.30544">
        <ele>24.2</ele>
        <time>2017-11-12T09:30:07Z</time>
      </trkpt>
      <trkpt lat="44.9477" lon="-0.30549">
        <ele>23.6</ele>
        <time>2017-11-12T09:30:15Z</time>
      </trkpt>
      <trkpt lat="44.94778" lon="-0.30553">
        <ele>24</ele>
        <time>2017-11-12T09:30:22Z</time>
      </trkpt>
      <trkpt lat="44.94787" lon="-0.30555">
        <ele>27.6</ele>
        <time>2017-11-12T09:30:31Z</time>
      </trkpt>
      <trkpt lat="44.94795" lon="-0.30559">
        <ele>29</ele>
        <time>2017-11-12T09:31:12Z</time>
      </trkpt>
      <trkpt lat="44.94803" lon="-0.30563">
        <ele>27.8</ele>
        <time>2017-11-12T09:31:20Z</time>
      </trkpt>
      <trkpt lat="44.9481" lon="-0.30568">
        <ele>24.3</ele>
        <time>2017-11-12T09:31:29Z</time>
      </trkpt>
      <trkpt lat="44.94818" lon="-0.30571">
        <ele>24.2</ele>
        <time>2017-11-12T09:31:35Z</time>
      </trkpt>
      <trkpt lat="44.94826" lon="-0.30574">
        <ele>23.5</ele>
        <time>2017-11-12T09:31:41Z</time>
      </trkpt>
      <trkpt lat="44.94834" lon="-0.30578">
        <ele>23.3</ele>
        <time>2017-11-12T09:31:48Z</time>
      </trkpt>
      <trkpt lat="44.94842" lon="-0.30583">
        <ele>22.6</ele>
        <time>2017-11-12T09:31:56Z</time>
      </trkpt>
      <trkpt lat="44.9485" lon="-0.30586">
        <ele>21.8</ele>
        <time>2017-11-12T09:32:04Z</time>
      </trkpt>
      <trkpt lat="44.94858" lon="-0.30588">
        <ele>20.4</ele>
        <time>2017-11-12T09:32:12Z</time>
      </trkpt>
      <trkpt lat="44.94867" lon="-0.30589">
        <ele>19.8</ele>
        <time>2017-11-12T09:32:18Z</time>
      </trkpt>
      <trkpt lat="44.94874" lon="-0.3059">
        <ele>20</ele>
        <time>2017-11-12T09:32:23Z</time>
      </trkpt>
      <trkpt lat="44.94883" lon="-0.3059">
        <ele>21.2</ele>
        <time>2017-11-12T09:32:28Z</time>
      </trkpt>
      <trkpt lat="44.94892" lon="-0.30591">
        <ele>22.7</ele>
        <time>2017-11-12T09:32:35Z</time>
      </trkpt>
      <trkpt lat="44.94899" lon="-0.30594">
        <ele>22.1</ele>
        <time>2017-11-12T09:32:41Z</time>
      </trkpt>
      <trkpt lat="44.94908" lon="-0.30593">
        <ele>21.7</ele>
        <time>2017-11-12T09:32:47Z</time>
      </trkpt>
      <trkpt lat="44.94916" lon="-0.30594">
        <ele>21.9</ele>
        <time>2017-11-12T09:32:53Z</time>
      </trkpt>
      <trkpt lat="44.94924" lon="-0.30597">
        <ele>21.4</ele>
        <time>2017-11-12T09:33:00Z</time>
      </trkpt>
      <trkpt lat="44.94933" lon="-0.306">
        <ele>21</ele>
        <time>2017-11-12T09:33:06Z</time>
      </trkpt>
      <trkpt lat="44.94941" lon="-0.30603">
        <ele>21.2</ele>
        <time>2017-11-12T09:33:12Z</time>
      </trkpt>
      <trkpt lat="44.94948" lon="-0.30607">
        <ele>21</ele>
        <time>2017-11-12T09:33:19Z</time>
      </trkpt>
      <trkpt lat="44.94956" lon="-0.30611">
        <ele>21.7</ele>
        <time>2017-11-12T09:33:25Z</time>
      </trkpt>
      <trkpt lat="44.94964" lon="-0.30614">
        <ele>22.2</ele>
        <time>2017-11-12T09:33:31Z</time>
      </trkpt>
      <trkpt lat="44.94972" lon="-0.30617">
        <ele>22.5</ele>
        <time>2017-11-12T09:33:37Z</time>
      </trkpt>
      <trkpt lat="44.94981" lon="-0.30621">
        <ele>23.6</ele>
        <time>2017-11-12T09:33:43Z</time>
      </trkpt>
      <trkpt lat="44.94988" lon="-0.30625">
        <ele>23</ele>
        <time>2017-11-12T09:33:49Z</time>
      </trkpt>
      <trkpt lat="44.94996" lon="-0.30629">
        <ele>22.8</ele>
        <time>2017-11-12T09:33:56Z</time>
      </trkpt>
      <trkpt lat="44.95003" lon="-0.30634">
        <ele>23.5</ele>
        <time>2017-11-12T09:34:03Z</time>
      </trkpt>
      <trkpt lat="44.95011" lon="-0.30638">
        <ele>22.6</ele>
        <time>2017-11-12T09:34:10Z</time>
      </trkpt>
      <trkpt lat="44.9502" lon="-0.30642">
        <ele>22.5</ele>
        <time>2017-11-12T09:34:16Z</time>
      </trkpt>
      <trkpt lat="44.95028" lon="-0.30646">
        <ele>22.3</ele>
        <time>2017-11-12T09:34:23Z</time>
      </trkpt>
      <trkpt lat="44.95036" lon="-0.30648">
        <ele>22.6</ele>
        <time>2017-11-12T09:34:29Z</time>
      </trkpt>
      <trkpt lat="44.95044" lon="-0.30651">
        <ele>23.4</ele>
        <time>2017-11-12T09:34:36Z</time>
      </trkpt>
      <trkpt lat="44.95052" lon="-0.30656">
        <ele>23.6</ele>
        <time>2017-11-12T09:34:42Z</time>
      </trkpt>
      <trkpt lat="44.9506" lon="-0.3066">
        <ele>23.9</ele>
        <time>2017-11-12T09:34:49Z</time>
      </trkpt>
      <trkpt lat="44.95068" lon="-0.30664">
        <ele>24.8</ele>
        <time>2017-11-12T09:34:55Z</time>
      </trkpt>
      <trkpt lat="44.95076" lon="-0.30667">
        <ele>25.8</ele>
        <time>2017-11-12T09:35:02Z</time>
      </trkpt>
      <trkpt lat="44.95084" lon="-0.3067">
        <ele>27.2</ele>
        <time>2017-11-12T09:35:09Z</time>
      </trkpt>
      <trkpt lat="44.95092" lon="-0.30674">
        <ele>27.2</ele>
        <time>2017-11-12T09:35:16Z</time>
      </trkpt>
      <trkpt lat="44.951" lon="-0.30677">
        <ele>26.5</ele>
        <time>2017-11-12T09:35:22Z</time>
      </trkpt>
      <trkpt lat="44.95108" lon="-0.3068">
        <ele>26.9</ele>
        <time>2017-11-12T09:35:29Z</time>
      </trkpt>
      <trkpt lat="44.95116" lon="-0.30683">
        <ele>25.9</ele>
        <time>2017-11-12T09:35:36Z</time>
      </trkpt>
      <trkpt lat="44.95124" lon="-0.30686">
        <ele>24.7</ele>
        <time>2017-11-12T09:35:43Z</time>
      </trkpt>
      <trkpt lat="44.95132" lon="-0.30688">
        <ele>24.5</ele>
        <time>2017-11-12T09:35:50Z</time>
      </trkpt>
      <trkpt lat="44.9514" lon="-0.30691">
        <ele>22.4</ele>
        <time>2017-11-12T09:35:58Z</time>
      </trkpt>
      <trkpt lat="44.95147" lon="-0.30693">
        <ele>22.2</ele>
        <time>2017-11-12T09:36:04Z</time>
      </trkpt>
      <trkpt lat="44.95155" lon="-0.30695">
        <ele>23.3</ele>
        <time>2017-11-12T09:36:09Z</time>
      </trkpt>
      <trkpt lat="44.95163" lon="-0.30697">
        <ele>24.5</ele>
        <time>2017-11-12T09:36:15Z</time>
      </trkpt>
      <trkpt lat="44.95172" lon="-0.307">
        <ele>25.4</ele>
        <time>2017-11-12T09:36:22Z</time>
      </trkpt>
      <trkpt lat="44.95179" lon="-0.30702">
        <ele>25</ele>
        <time>2017-11-12T09:36:29Z</time>
      </trkpt>
      <trkpt lat="44.95188" lon="-0.30705">
        <ele>26</ele>
        <time>2017-11-12T09:36:37Z</time>
      </trkpt>
      <trkpt lat="44.95197" lon="-0.30707">
        <ele>26.7</ele>
        <time>2017-11-12T09:36:45Z</time>
      </trkpt>
      <trkpt lat="44.95205" lon="-0.30708">
        <ele>23.6</ele>
        <time>2017-11-12T09:36:58Z</time>
      </trkpt>
      <trkpt lat="44.95214" lon="-0.30709">
        <ele>24.4</ele>
        <time>2017-11-12T09:37:06Z</time>
      </trkpt>
      <trkpt lat="44.95218" lon="-0.3071">
        <ele>25.4</ele>
        <time>2017-11-12T09:37:33Z</time>
      </trkpt>
      <trkpt lat="44.95226" lon="-0.30716">
        <ele>23.4</ele>
        <time>2017-11-12T09:37:41Z</time>
      </trkpt>
      <trkpt lat="44.95229" lon="-0.30725">
        <ele>16.6</ele>
        <time>2017-11-12T09:38:41Z</time>
      </trkpt>
      <trkpt lat="44.95231" lon="-0.30743">
        <ele>16</ele>
        <time>2017-11-12T09:38:45Z</time>
      </trkpt>
      <trkpt lat="44.9523" lon="-0.30732">
        <ele>16</ele>
        <time>2017-11-12T09:39:01Z</time>
      </trkpt>
      <trkpt lat="44.95227" lon="-0.3072">
        <ele>22.3</ele>
        <time>2017-11-12T09:39:09Z</time>
      </trkpt>
      <trkpt lat="44.95233" lon="-0.30712">
        <ele>32.9</ele>
        <time>2017-11-12T09:39:14Z</time>
      </trkpt>
      <trkpt lat="44.9523" lon="-0.30712">
        <ele>30.9</ele>
        <time>2017-11-12T09:39:28Z</time>
      </trkpt>
      <trkpt lat="44.95221" lon="-0.30706">
        <ele>45.8</ele>
        <time>2017-11-12T09:39:32Z</time>
      </trkpt>
      <trkpt lat="44.9522" lon="-0.30694">
        <ele>39.4</ele>
        <time>2017-11-12T09:40:32Z</time>
      </trkpt>
      <trkpt lat="44.95214" lon="-0.30685">
        <ele>33.3</ele>
        <time>2017-11-12T09:40:52Z</time>
      </trkpt>
      <trkpt lat="44.95211" lon="-0.30675">
        <ele>32.4</ele>
        <time>2017-11-12T09:41:00Z</time>
      </trkpt>
      <trkpt lat="44.95208" lon="-0.30663">
        <ele>31.2</ele>
        <time>2017-11-12T09:41:08Z</time>
      </trkpt>
      <trkpt lat="44.95204" lon="-0.30652">
        <ele>23.4</ele>
        <time>2017-11-12T09:41:29Z</time>
      </trkpt>
      <trkpt lat="44.952" lon="-0.30641">
        <ele>19.6</ele>
        <time>2017-11-12T09:41:40Z</time>
      </trkpt>
      <trkpt lat="44.95197" lon="-0.30631">
        <ele>18.6</ele>
        <time>2017-11-12T09:41:48Z</time>
      </trkpt>
      <trkpt lat="44.95193" lon="-0.3062">
        <ele>19.4</ele>
        <time>2017-11-12T09:41:56Z</time>
      </trkpt>
      <trkpt lat="44.95188" lon="-0.30609">
        <ele>28.5</ele>
        <time>2017-11-12T09:42:06Z</time>
      </trkpt>
      <trkpt lat="44.95182" lon="-0.30602">
        <ele>27.4</ele>
        <time>2017-11-12T09:42:13Z</time>
      </trkpt>
      <trkpt lat="44.95177" lon="-0.30594">
        <ele>26.9</ele>
        <time>2017-11-12T09:42:19Z</time>
      </trkpt>
      <trkpt lat="44.95172" lon="-0.30584">
        <ele>26.8</ele>
        <time>2017-11-12T09:42:25Z</time>
      </trkpt>
      <trkpt lat="44.95167" lon="-0.30574">
        <ele>24.9</ele>
        <time>2017-11-12T09:42:32Z</time>
      </trkpt>
      <trkpt lat="44.95161" lon="-0.30566">
        <ele>24.9</ele>
        <time>2017-11-12T09:42:39Z</time>
      </trkpt>
      <trkpt lat="44.95155" lon="-0.30557">
        <ele>26.1</ele>
        <time>2017-11-12T09:42:45Z</time>
      </trkpt>
      <trkpt lat="44.9515" lon="-0.30548">
        <ele>25.9</ele>
        <time>2017-11-12T09:42:52Z</time>
      </trkpt>
      <trkpt lat="44.95144" lon="-0.30541">
        <ele>25.9</ele>
        <time>2017-11-12T09:42:58Z</time>
      </trkpt>
      <trkpt lat="44.95139" lon="-0.30532">
        <ele>24.8</ele>
        <time>2017-11-12T09:43:04Z</time>
      </trkpt>
      <trkpt lat="44.95134" lon="-0.30524">
        <ele>23.8</ele>
        <time>2017-11-12T09:43:10Z</time>
      </trkpt>
      <trkpt lat="44.95129" lon="-0.30514">
        <ele>23.5</ele>
        <time>2017-11-12T09:43:17Z</time>
      </trkpt>
      <trkpt lat="44.95124" lon="-0.30505">
        <ele>23.8</ele>
        <time>2017-11-12T09:43:23Z</time>
      </trkpt>
      <trkpt lat="44.9512" lon="-0.30494">
        <ele>24.5</ele>
        <time>2017-11-12T09:43:29Z</time>
      </trkpt>
      <trkpt lat="44.95116" lon="-0.30483">
        <ele>24.9</ele>
        <time>2017-11-12T09:43:37Z</time>
      </trkpt>
      <trkpt lat="44.95113" lon="-0.30472">
        <ele>23.3</ele>
        <time>2017-11-12T09:43:51Z</time>
      </trkpt>
      <trkpt lat="44.95109" lon="-0.30461">
        <ele>24.6</ele>
        <time>2017-11-12T09:44:00Z</time>
      </trkpt>
      <trkpt lat="44.95107" lon="-0.3045">
        <ele>23.4</ele>
        <time>2017-11-12T09:44:08Z</time>
      </trkpt>
      <trkpt lat="44.95106" lon="-0.30438">
        <ele>23.4</ele>
        <time>2017-11-12T09:44:15Z</time>
      </trkpt>
      <trkpt lat="44.95104" lon="-0.30426">
        <ele>23.4</ele>
        <time>2017-11-12T09:44:26Z</time>
      </trkpt>
      <trkpt lat="44.95102" lon="-0.30414">
        <ele>25</ele>
        <time>2017-11-12T09:44:37Z</time>
      </trkpt>
      <trkpt lat="44.95105" lon="-0.30402">
        <ele>28.7</ele>
        <time>2017-11-12T09:44:52Z</time>
      </trkpt>
      <trkpt lat="44.95102" lon="-0.30391">
        <ele>26.5</ele>
        <time>2017-11-12T09:45:11Z</time>
      </trkpt>
      <trkpt lat="44.95101" lon="-0.30379">
        <ele>25.3</ele>
        <time>2017-11-12T09:45:22Z</time>
      </trkpt>
      <trkpt lat="44.951" lon="-0.30369">
        <ele>25.6</ele>
        <time>2017-11-12T09:45:28Z</time>
      </trkpt>
      <trkpt lat="44.95099" lon="-0.30356">
        <ele>25.5</ele>
        <time>2017-11-12T09:45:35Z</time>
      </trkpt>
      <trkpt lat="44.95098" lon="-0.30344">
        <ele>24.5</ele>
        <time>2017-11-12T09:45:44Z</time>
      </trkpt>
      <trkpt lat="44.95095" lon="-0.30333">
        <ele>25.3</ele>
        <time>2017-11-12T09:45:52Z</time>
      </trkpt>
      <trkpt lat="44.9509" lon="-0.30322">
        <ele>26.1</ele>
        <time>2017-11-12T09:46:00Z</time>
      </trkpt>
      <trkpt lat="44.95089" lon="-0.3031">
        <ele>25.5</ele>
        <time>2017-11-12T09:46:07Z</time>
      </trkpt>
      <trkpt lat="44.95088" lon="-0.30297">
        <ele>25.3</ele>
        <time>2017-11-12T09:46:16Z</time>
      </trkpt>
      <trkpt lat="44.95088" lon="-0.30286">
        <ele>26.3</ele>
        <time>2017-11-12T09:46:25Z</time>
      </trkpt>
      <trkpt lat="44.9509" lon="-0.30274">
        <ele>26</ele>
        <time>2017-11-12T09:46:32Z</time>
      </trkpt>
      <trkpt lat="44.95091" lon="-0.30263">
        <ele>25.4</ele>
        <time>2017-11-12T09:46:40Z</time>
      </trkpt>
      <trkpt lat="44.95092" lon="-0.30251">
        <ele>24.2</ele>
        <time>2017-11-12T09:46:47Z</time>
      </trkpt>
      <trkpt lat="44.95094" lon="-0.30239">
        <ele>24.2</ele>
        <time>2017-11-12T09:46:53Z</time>
      </trkpt>
      <trkpt lat="44.95095" lon="-0.30227">
        <ele>23.8</ele>
        <time>2017-11-12T09:47:00Z</time>
      </trkpt>
      <trkpt lat="44.95096" lon="-0.30216">
        <ele>23.2</ele>
        <time>2017-11-12T09:47:07Z</time>
      </trkpt>
      <trkpt lat="44.95098" lon="-0.30205">
        <ele>21.8</ele>
        <time>2017-11-12T09:47:13Z</time>
      </trkpt>
      <trkpt lat="44.951" lon="-0.30194">
        <ele>20.9</ele>
        <time>2017-11-12T09:47:20Z</time>
      </trkpt>
      <trkpt lat="44.951" lon="-0.30183">
        <ele>20.4</ele>
        <time>2017-11-12T09:47:27Z</time>
      </trkpt>
      <trkpt lat="44.95102" lon="-0.30172">
        <ele>18.4</ele>
        <time>2017-11-12T09:47:34Z</time>
      </trkpt>
      <trkpt lat="44.95104" lon="-0.30161">
        <ele>16.6</ele>
        <time>2017-11-12T09:47:41Z</time>
      </trkpt>
      <trkpt lat="44.95104" lon="-0.30149">
        <ele>19.7</ele>
        <time>2017-11-12T09:47:48Z</time>
      </trkpt>
      <trkpt lat="44.95105" lon="-0.30136">
        <ele>24.5</ele>
        <time>2017-11-12T09:48:37Z</time>
      </trkpt>
      <trkpt lat="44.95108" lon="-0.30125">
        <ele>20.8</ele>
        <time>2017-11-12T09:48:47Z</time>
      </trkpt>
      <trkpt lat="44.9511" lon="-0.30113">
        <ele>18.8</ele>
        <time>2017-11-12T09:48:55Z</time>
      </trkpt>
      <trkpt lat="44.95112" lon="-0.30102">
        <ele>15.9</ele>
        <time>2017-11-12T09:49:03Z</time>
      </trkpt>
      <trkpt lat="44.95112" lon="-0.30091">
        <ele>15.7</ele>
        <time>2017-11-12T09:49:10Z</time>
      </trkpt>
      <trkpt lat="44.95114" lon="-0.30079">
        <ele>16.1</ele>
        <time>2017-11-12T09:49:18Z</time>
      </trkpt>
      <trkpt lat="44.95115" lon="-0.30067">
        <ele>14.7</ele>
        <time>2017-11-12T09:49:25Z</time>
      </trkpt>
      <trkpt lat="44.95116" lon="-0.30055">
        <ele>13.9</ele>
        <time>2017-11-12T09:49:32Z</time>
      </trkpt>
      <trkpt lat="44.95116" lon="-0.30045">
        <ele>15.5</ele>
        <time>2017-11-12T09:49:38Z</time>
      </trkpt>
      <trkpt lat="44.95115" lon="-0.30033">
        <ele>16.3</ele>
        <time>2017-11-12T09:49:43Z</time>
      </trkpt>
      <trkpt lat="44.95115" lon="-0.30022">
        <ele>16.6</ele>
        <time>2017-11-12T09:49:49Z</time>
      </trkpt>
      <trkpt lat="44.95116" lon="-0.30011">
        <ele>18.9</ele>
        <time>2017-11-12T09:49:56Z</time>
      </trkpt>
      <trkpt lat="44.95115" lon="-0.29999">
        <ele>21.2</ele>
        <time>2017-11-12T09:50:02Z</time>
      </trkpt>
      <trkpt lat="44.95115" lon="-0.29989">
        <ele>20.1</ele>
        <time>2017-11-12T09:50:07Z</time>
      </trkpt>
      <trkpt lat="44.95115" lon="-0.29977">
        <ele>18.5</ele>
        <time>2017-11-12T09:50:13Z</time>
      </trkpt>
      <trkpt lat="44.95115" lon="-0.29965">
        <ele>18.2</ele>
        <time>2017-11-12T09:50:20Z</time>
      </trkpt>
      <trkpt lat="44.95115" lon="-0.29953">
        <ele>17.2</ele>
        <time>2017-11-12T09:50:28Z</time>
      </trkpt>
      <trkpt lat="44.95115" lon="-0.2994">
        <ele>17.5</ele>
        <time>2017-11-12T09:50:34Z</time>
      </trkpt>
      <trkpt lat="44.95114" lon="-0.29927">
        <ele>16.6</ele>
        <time>2017-11-12T09:50:41Z</time>
      </trkpt>
      <trkpt lat="44.95114" lon="-0.29915">
        <ele>15.9</ele>
        <time>2017-11-12T09:50:47Z</time>
      </trkpt>
      <trkpt lat="44.95111" lon="-0.29904">
        <ele>16.1</ele>
        <time>2017-11-12T09:50:54Z</time>
      </trkpt>
      <trkpt lat="44.95109" lon="-0.29893">
        <ele>16.9</ele>
        <time>2017-11-12T09:51:00Z</time>
      </trkpt>
      <trkpt lat="44.95106" lon="-0.29881">
        <ele>18.5</ele>
        <time>2017-11-12T09:51:06Z</time>
      </trkpt>
      <trkpt lat="44.95104" lon="-0.29869">
        <ele>20.8</ele>
        <time>2017-11-12T09:51:12Z</time>
      </trkpt>
      <trkpt lat="44.95102" lon="-0.29857">
        <ele>23</ele>
        <time>2017-11-12T09:51:18Z</time>
      </trkpt>
      <trkpt lat="44.951" lon="-0.29846">
        <ele>25.3</ele>
        <time>2017-11-12T09:51:24Z</time>
      </trkpt>
      <trkpt lat="44.95099" lon="-0.29835">
        <ele>25.5</ele>
        <time>2017-11-12T09:51:29Z</time>
      </trkpt>
      <trkpt lat="44.95097" lon="-0.29824">
        <ele>24</ele>
        <time>2017-11-12T09:51:37Z</time>
      </trkpt>
      <trkpt lat="44.95095" lon="-0.29812">
        <ele>22.8</ele>
        <time>2017-11-12T09:51:44Z</time>
      </trkpt>
      <trkpt lat="44.95093" lon="-0.29801">
        <ele>25</ele>
        <time>2017-11-12T09:51:50Z</time>
      </trkpt>
      <trkpt lat="44.9509" lon="-0.29789">
        <ele>26.6</ele>
        <time>2017-11-12T09:51:56Z</time>
      </trkpt>
      <trkpt lat="44.95089" lon="-0.29779">
        <ele>29.7</ele>
        <time>2017-11-12T09:52:03Z</time>
      </trkpt>
      <trkpt lat="44.95087" lon="-0.29766">
        <ele>30.6</ele>
        <time>2017-11-12T09:52:10Z</time>
      </trkpt>
      <trkpt lat="44.95087" lon="-0.29754">
        <ele>26.2</ele>
        <time>2017-11-12T09:52:20Z</time>
      </trkpt>
      <trkpt lat="44.95082" lon="-0.29745">
        <ele>25.7</ele>
        <time>2017-11-12T09:53:02Z</time>
      </trkpt>
      <trkpt lat="44.95081" lon="-0.29733">
        <ele>24.8</ele>
        <time>2017-11-12T09:53:12Z</time>
      </trkpt>
      <trkpt lat="44.95081" lon="-0.29721">
        <ele>28.3</ele>
        <time>2017-11-12T09:53:23Z</time>
      </trkpt>
      <trkpt lat="44.95087" lon="-0.29711">
        <ele>21.3</ele>
        <time>2017-11-12T09:53:52Z</time>
      </trkpt>
      <trkpt lat="44.95088" lon="-0.29702">
        <ele>21.5</ele>
        <time>2017-11-12T09:54:02Z</time>
      </trkpt>
      <trkpt lat="44.95085" lon="-0.2969">
        <ele>20.2</ele>
        <time>2017-11-12T09:54:07Z</time>
      </trkpt>
      <trkpt lat="44.95087" lon="-0.29678">
        <ele>17.1</ele>
        <time>2017-11-12T09:54:23Z</time>
      </trkpt>
      <trkpt lat="44.95089" lon="-0.29666">
        <ele>17.9</ele>
        <time>2017-11-12T09:54:32Z</time>
      </trkpt>
      <trkpt lat="44.95092" lon="-0.29655">
        <ele>21.3</ele>
        <time>2017-11-12T09:54:41Z</time>
      </trkpt>
      <trkpt lat="44.95095" lon="-0.29644">
        <ele>22.2</ele>
        <time>2017-11-12T09:54:49Z</time>
      </trkpt>
      <trkpt lat="44.95093" lon="-0.29632">
        <ele>22.2</ele>
        <time>2017-11-12T09:54:57Z</time>
      </trkpt>
      <trkpt lat="44.95094" lon="-0.29621">
        <ele>25</ele>
        <time>2017-11-12T09:55:04Z</time>
      </trkpt>
      <trkpt lat="44.95096" lon="-0.29611">
        <ele>24.9</ele>
        <time>2017-11-12T09:55:11Z</time>
      </trkpt>
      <trkpt lat="44.95097" lon="-0.29598">
        <ele>24.1</ele>
        <time>2017-11-12T09:55:20Z</time>
      </trkpt>
      <trkpt lat="44.95098" lon="-0.29586">
        <ele>24.3</ele>
        <time>2017-11-12T09:55:27Z</time>
      </trkpt>
      <trkpt lat="44.951" lon="-0.29574">
        <ele>24.4</ele>
        <time>2017-11-12T09:55:35Z</time>
      </trkpt>
      <trkpt lat="44.95101" lon="-0.29566">
        <ele>26.6</ele>
        <time>2017-11-12T09:56:03Z</time>
      </trkpt>
      <trkpt lat="44.95105" lon="-0.29554">
        <ele>27.6</ele>
        <time>2017-11-12T09:56:11Z</time>
      </trkpt>
      <trkpt lat="44.95106" lon="-0.29543">
        <ele>24.9</ele>
        <time>2017-11-12T09:56:21Z</time>
      </trkpt>
      <trkpt lat="44.95108" lon="-0.29531">
        <ele>24.9</ele>
        <time>2017-11-12T09:56:30Z</time>
      </trkpt>
      <trkpt lat="44.9511" lon="-0.2952">
        <ele>25.6</ele>
        <time>2017-11-12T09:56:38Z</time>
      </trkpt>
      <trkpt lat="44.95111" lon="-0.29509">
        <ele>24.7</ele>
        <time>2017-11-12T09:56:46Z</time>
      </trkpt>
      <trkpt lat="44.95111" lon="-0.29497">
        <ele>23.7</ele>
        <time>2017-11-12T09:56:53Z</time>
      </trkpt>
      <trkpt lat="44.9511" lon="-0.29486">
        <ele>23.1</ele>
        <time>2017-11-12T09:56:59Z</time>
      </trkpt>
      <trkpt lat="44.9511" lon="-0.29474">
        <ele>22.4</ele>
        <time>2017-11-12T09:57:07Z</time>
      </trkpt>
      <trkpt lat="44.95108" lon="-0.29463">
        <ele>23</ele>
        <time>2017-11-12T09:57:13Z</time>
      </trkpt>
      <trkpt lat="44.95106" lon="-0.29452">
        <ele>22.1</ele>
        <time>2017-11-12T09:57:20Z</time>
      </trkpt>
      <trkpt lat="44.95104" lon="-0.2944">
        <ele>22.6</ele>
        <time>2017-11-12T09:57:28Z</time>
      </trkpt>
      <trkpt lat="44.95102" lon="-0.29428">
        <ele>21.2</ele>
        <time>2017-11-12T09:57:36Z</time>
      </trkpt>
      <trkpt lat="44.95099" lon="-0.29417">
        <ele>21.1</ele>
        <time>2017-11-12T09:57:43Z</time>
      </trkpt>
      <trkpt lat="44.95096" lon="-0.29406">
        <ele>21.6</ele>
        <time>2017-11-12T09:57:49Z</time>
      </trkpt>
      <trkpt lat="44.95093" lon="-0.29395">
        <ele>20.8</ele>
        <time>2017-11-12T09:57:56Z</time>
      </trkpt>
      <trkpt lat="44.9509" lon="-0.29384">
        <ele>20.3</ele>
        <time>2017-11-12T09:58:02Z</time>
      </trkpt>
      <trkpt lat="44.95087" lon="-0.29373">
        <ele>20.8</ele>
        <time>2017-11-12T09:58:09Z</time>
      </trkpt>
      <trkpt lat="44.95083" lon="-0.29363">
        <ele>20.6</ele>
        <time>2017-11-12T09:58:16Z</time>
      </trkpt>
      <trkpt lat="44.95078" lon="-0.29353">
        <ele>21.4</ele>
        <time>2017-11-12T09:58:23Z</time>
      </trkpt>
      <trkpt lat="44.95073" lon="-0.29343">
        <ele>22.8</ele>
        <time>2017-11-12T09:58:30Z</time>
      </trkpt>
      <trkpt lat="44.95067" lon="-0.29335">
        <ele>24.7</ele>
        <time>2017-11-12T09:58:36Z</time>
      </trkpt>
      <trkpt lat="44.95063" lon="-0.29324">
        <ele>26.8</ele>
        <time>2017-11-12T09:58:43Z</time>
      </trkpt>
      <trkpt lat="44.95061" lon="-0.29313">
        <ele>26.8</ele>
        <time>2017-11-12T09:58:49Z</time>
      </trkpt>
      <trkpt lat="44.95058" lon="-0.29302">
        <ele>27</ele>
        <time>2017-11-12T09:58:56Z</time>
      </trkpt>
      <trkpt lat="44.95056" lon="-0.2929">
        <ele>24.7</ele>
        <time>2017-11-12T09:59:03Z</time>
      </trkpt>
      <trkpt lat="44.95053" lon="-0.29278">
        <ele>23.6</ele>
        <time>2017-11-12T09:59:10Z</time>
      </trkpt>
      <trkpt lat="44.95052" lon="-0.29266">
        <ele>23.1</ele>
        <time>2017-11-12T09:59:17Z</time>
      </trkpt>
      <trkpt lat="44.9505" lon="-0.29254">
        <ele>23</ele>
        <time>2017-11-12T09:59:31Z</time>
      </trkpt>
      <trkpt lat="44.95049" lon="-0.29241">
        <ele>24.2</ele>
        <time>2017-11-12T09:59:41Z</time>
      </trkpt>
      <trkpt lat="44.95049" lon="-0.29229">
        <ele>25.4</ele>
        <time>2017-11-12T09:59:50Z</time>
      </trkpt>
      <trkpt lat="44.95049" lon="-0.29216">
        <ele>26.7</ele>
        <time>2017-11-12T09:59:57Z</time>
      </trkpt>
      <trkpt lat="44.95048" lon="-0.29204">
        <ele>27.3</ele>
        <time>2017-11-12T10:00:05Z</time>
      </trkpt>
      <trkpt lat="44.95052" lon="-0.29194">
        <ele>26.1</ele>
        <time>2017-11-12T10:00:15Z</time>
      </trkpt>
      <trkpt lat="44.95054" lon="-0.29182">
        <ele>24.9</ele>
        <time>2017-11-12T10:00:22Z</time>
      </trkpt>
      <trkpt lat="44.95054" lon="-0.2917">
        <ele>22.9</ele>
        <time>2017-11-12T10:00:29Z</time>
      </trkpt>
      <trkpt lat="44.95053" lon="-0.29159">
        <ele>20.8</ele>
        <time>2017-11-12T10:00:34Z</time>
      </trkpt>
      <trkpt lat="44.95052" lon="-0.29147">
        <ele>19.9</ele>
        <time>2017-11-12T10:00:40Z</time>
      </trkpt>
      <trkpt lat="44.9505" lon="-0.29136">
        <ele>20.4</ele>
        <time>2017-11-12T10:00:46Z</time>
      </trkpt>
      <trkpt lat="44.95046" lon="-0.29126">
        <ele>21.3</ele>
        <time>2017-11-12T10:00:51Z</time>
      </trkpt>
      <trkpt lat="44.95043" lon="-0.29115">
        <ele>21.4</ele>
        <time>2017-11-12T10:00:57Z</time>
      </trkpt>
      <trkpt lat="44.95041" lon="-0.29104">
        <ele>20.2</ele>
        <time>2017-11-12T10:01:04Z</time>
      </trkpt>
      <trkpt lat="44.95039" lon="-0.29093">
        <ele>19.2</ele>
        <time>2017-11-12T10:01:11Z</time>
      </trkpt>
      <trkpt lat="44.95036" lon="-0.29082">
        <ele>20.2</ele>
        <time>2017-11-12T10:01:19Z</time>
      </trkpt>
      <trkpt lat="44.95033" lon="-0.29071">
        <ele>21.8</ele>
        <time>2017-11-12T10:01:25Z</time>
      </trkpt>
      <trkpt lat="44.95029" lon="-0.29061">
        <ele>22.8</ele>
        <time>2017-11-12T10:01:32Z</time>
      </trkpt>
      <trkpt lat="44.95025" lon="-0.2905">
        <ele>21.9</ele>
        <time>2017-11-12T10:01:39Z</time>
      </trkpt>
      <trkpt lat="44.9502" lon="-0.2904">
        <ele>23.1</ele>
        <time>2017-11-12T10:01:46Z</time>
      </trkpt>
      <trkpt lat="44.95017" lon="-0.29029">
        <ele>25.1</ele>
        <time>2017-11-12T10:01:54Z</time>
      </trkpt>
      <trkpt lat="44.95014" lon="-0.29018">
        <ele>24.2</ele>
        <time>2017-11-12T10:02:02Z</time>
      </trkpt>
      <trkpt lat="44.95011" lon="-0.29006">
        <ele>26.6</ele>
        <time>2017-11-12T10:02:10Z</time>
      </trkpt>
      <trkpt lat="44.95009" lon="-0.28995">
        <ele>30.2</ele>
        <time>2017-11-12T10:02:18Z</time>
      </trkpt>
      <trkpt lat="44.95008" lon="-0.28982">
        <ele>30.3</ele>
        <time>2017-11-12T10:02:26Z</time>
      </trkpt>
      <trkpt lat="44.95008" lon="-0.28971">
        <ele>29.1</ele>
        <time>2017-11-12T10:02:33Z</time>
      </trkpt>
      <trkpt lat="44.95007" lon="-0.2896">
        <ele>29.9</ele>
        <time>2017-11-12T10:02:40Z</time>
      </trkpt>
      <trkpt lat="44.95007" lon="-0.28948">
        <ele>30.6</ele>
        <time>2017-11-12T10:02:50Z</time>
      </trkpt>
      <trkpt lat="44.95007" lon="-0.28938">
        <ele>29.6</ele>
        <time>2017-11-12T10:02:59Z</time>
      </trkpt>
      <trkpt lat="44.95003" lon="-0.28932">
        <ele>34.4</ele>
        <time>2017-11-12T10:03:36Z</time>
      </trkpt>
      <trkpt lat="44.95002" lon="-0.28916">
        <ele>33.5</ele>
        <time>2017-11-12T10:03:41Z</time>
      </trkpt>
      <trkpt lat="44.95003" lon="-0.28905">
        <ele>24.8</ele>
        <time>2017-11-12T10:03:57Z</time>
      </trkpt>
      <trkpt lat="44.94998" lon="-0.28896">
        <ele>23.7</ele>
        <time>2017-11-12T10:05:11Z</time>
      </trkpt>
      <trkpt lat="44.95004" lon="-0.28887">
        <ele>27.8</ele>
        <time>2017-11-12T10:07:28Z</time>
      </trkpt>
      <trkpt lat="44.95002" lon="-0.28877">
        <ele>28</ele>
        <time>2017-11-12T10:07:38Z</time>
      </trkpt>
      <trkpt lat="44.94999" lon="-0.28865">
        <ele>29.3</ele>
        <time>2017-11-12T10:07:46Z</time>
      </trkpt>
      <trkpt lat="44.94996" lon="-0.28855">
        <ele>29.9</ele>
        <time>2017-11-12T10:07:52Z</time>
      </trkpt>
      <trkpt lat="44.94992" lon="-0.28845">
        <ele>28</ele>
        <time>2017-11-12T10:07:59Z</time>
      </trkpt>
      <trkpt lat="44.9499" lon="-0.28833">
        <ele>25.8</ele>
        <time>2017-11-12T10:08:06Z</time>
      </trkpt>
      <trkpt lat="44.94992" lon="-0.28821">
        <ele>19.5</ele>
        <time>2017-11-12T10:08:18Z</time>
      </trkpt>
      <trkpt lat="44.94988" lon="-0.2881">
        <ele>16.5</ele>
        <time>2017-11-12T10:08:27Z</time>
      </trkpt>
      <trkpt lat="44.94983" lon="-0.28801">
        <ele>15.3</ele>
        <time>2017-11-12T10:08:33Z</time>
      </trkpt>
      <trkpt lat="44.94979" lon="-0.28791">
        <ele>13.8</ele>
        <time>2017-11-12T10:08:39Z</time>
      </trkpt>
      <trkpt lat="44.94976" lon="-0.28781">
        <ele>11.9</ele>
        <time>2017-11-12T10:08:44Z</time>
      </trkpt>
      <trkpt lat="44.94974" lon="-0.28771">
        <ele>11.9</ele>
        <time>2017-11-12T10:08:48Z</time>
      </trkpt>
      <trkpt lat="44.94967" lon="-0.28764">
        <ele>30.6</ele>
        <time>2017-11-12T10:09:38Z</time>
      </trkpt>
      <trkpt lat="44.94964" lon="-0.28753">
        <ele>27.8</ele>
        <time>2017-11-12T10:09:47Z</time>
      </trkpt>
      <trkpt lat="44.94961" lon="-0.28741">
        <ele>26.2</ele>
        <time>2017-11-12T10:09:56Z</time>
      </trkpt>
      <trkpt lat="44.94958" lon="-0.28731">
        <ele>23.7</ele>
        <time>2017-11-12T10:10:03Z</time>
      </trkpt>
      <trkpt lat="44.94954" lon="-0.2872">
        <ele>22.7</ele>
        <time>2017-11-12T10:10:10Z</time>
      </trkpt>
      <trkpt lat="44.94952" lon="-0.28709">
        <ele>22.5</ele>
        <time>2017-11-12T10:10:19Z</time>
      </trkpt>
      <trkpt lat="44.94949" lon="-0.28699">
        <ele>22.8</ele>
        <time>2017-11-12T10:10:27Z</time>
      </trkpt>
      <trkpt lat="44.94948" lon="-0.28687">
        <ele>24.6</ele>
        <time>2017-11-12T10:10:35Z</time>
      </trkpt>
      <trkpt lat="44.94943" lon="-0.28676">
        <ele>24.7</ele>
        <time>2017-11-12T10:10:50Z</time>
      </trkpt>
      <trkpt lat="44.94942" lon="-0.28664">
        <ele>26.1</ele>
        <time>2017-11-12T10:11:01Z</time>
      </trkpt>
      <trkpt lat="44.94941" lon="-0.28652">
        <ele>26.7</ele>
        <time>2017-11-12T10:11:10Z</time>
      </trkpt>
      <trkpt lat="44.9494" lon="-0.28641">
        <ele>26.1</ele>
        <time>2017-11-12T10:11:17Z</time>
      </trkpt>
      <trkpt lat="44.94938" lon="-0.28631">
        <ele>25.7</ele>
        <time>2017-11-12T10:11:23Z</time>
      </trkpt>
      <trkpt lat="44.94934" lon="-0.28619">
        <ele>26.6</ele>
        <time>2017-11-12T10:11:29Z</time>
      </trkpt>
      <trkpt lat="44.94931" lon="-0.28608">
        <ele>27.6</ele>
        <time>2017-11-12T10:11:34Z</time>
      </trkpt>
      <trkpt lat="44.9493" lon="-0.28596">
        <ele>28.7</ele>
        <time>2017-11-12T10:11:41Z</time>
      </trkpt>
      <trkpt lat="44.94929" lon="-0.28584">
        <ele>28</ele>
        <time>2017-11-12T10:11:50Z</time>
      </trkpt>
      <trkpt lat="44.94926" lon="-0.28572">
        <ele>34.8</ele>
        <time>2017-11-12T10:13:17Z</time>
      </trkpt>
      <trkpt lat="44.94918" lon="-0.28568">
        <ele>28</ele>
        <time>2017-11-12T10:16:25Z</time>
      </trkpt>
      <trkpt lat="44.9491" lon="-0.28565">
        <ele>27.1</ele>
        <time>2017-11-12T10:16:37Z</time>
      </trkpt>
      <trkpt lat="44.94901" lon="-0.28565">
        <ele>27</ele>
        <time>2017-11-12T10:16:46Z</time>
      </trkpt>
      <trkpt lat="44.94893" lon="-0.28571">
        <ele>26.5</ele>
        <time>2017-11-12T10:16:54Z</time>
      </trkpt>
      <trkpt lat="44.94885" lon="-0.28575">
        <ele>26.5</ele>
        <time>2017-11-12T10:17:03Z</time>
      </trkpt>
      <trkpt lat="44.94877" lon="-0.28576">
        <ele>26.8</ele>
        <time>2017-11-12T10:17:11Z</time>
      </trkpt>
      <trkpt lat="44.94869" lon="-0.28576">
        <ele>26.1</ele>
        <time>2017-11-12T10:17:18Z</time>
      </trkpt>
      <trkpt lat="44.94861" lon="-0.28574">
        <ele>26</ele>
        <time>2017-11-12T10:17:25Z</time>
      </trkpt>
      <trkpt lat="44.94853" lon="-0.2857">
        <ele>23.4</ele>
        <time>2017-11-12T10:17:34Z</time>
      </trkpt>
      <trkpt lat="44.94845" lon="-0.28568">
        <ele>22.8</ele>
        <time>2017-11-12T10:17:43Z</time>
      </trkpt>
      <trkpt lat="44.94837" lon="-0.28569">
        <ele>24.9</ele>
        <time>2017-11-12T10:17:53Z</time>
      </trkpt>
      <trkpt lat="44.94829" lon="-0.28572">
        <ele>26.9</ele>
        <time>2017-11-12T10:17:59Z</time>
      </trkpt>
      <trkpt lat="44.9482" lon="-0.28575">
        <ele>28.6</ele>
        <time>2017-11-12T10:18:06Z</time>
      </trkpt>
      <trkpt lat="44.94812" lon="-0.28576">
        <ele>28.9</ele>
        <time>2017-11-12T10:18:14Z</time>
      </trkpt>
      <trkpt lat="44.94803" lon="-0.28577">
        <ele>27.4</ele>
        <time>2017-11-12T10:18:22Z</time>
      </trkpt>
      <trkpt lat="44.94795" lon="-0.28581">
        <ele>27.2</ele>
        <time>2017-11-12T10:18:32Z</time>
      </trkpt>
      <trkpt lat="44.94787" lon="-0.28586">
        <ele>25.9</ele>
        <time>2017-11-12T10:18:53Z</time>
      </trkpt>
      <trkpt lat="44.94779" lon="-0.28589">
        <ele>24.4</ele>
        <time>2017-11-12T10:19:03Z</time>
      </trkpt>
      <trkpt lat="44.9477" lon="-0.2859">
        <ele>22.6</ele>
        <time>2017-11-12T10:19:13Z</time>
      </trkpt>
      <trkpt lat="44.94762" lon="-0.28593">
        <ele>21.9</ele>
        <time>2017-11-12T10:19:20Z</time>
      </trkpt>
      <trkpt lat="44.94754" lon="-0.28597">
        <ele>21.6</ele>
        <time>2017-11-12T10:19:29Z</time>
      </trkpt>
      <trkpt lat="44.94746" lon="-0.28602">
        <ele>22.8</ele>
        <time>2017-11-12T10:19:36Z</time>
      </trkpt>
      <trkpt lat="44.94738" lon="-0.28607">
        <ele>24.1</ele>
        <time>2017-11-12T10:19:44Z</time>
      </trkpt>
      <trkpt lat="44.9473" lon="-0.28613">
        <ele>24.4</ele>
        <time>2017-11-12T10:19:51Z</time>
      </trkpt>
      <trkpt lat="44.94723" lon="-0.28617">
        <ele>24.3</ele>
        <time>2017-11-12T10:19:57Z</time>
      </trkpt>
      <trkpt lat="44.94716" lon="-0.28622">
        <ele>24.3</ele>
        <time>2017-11-12T10:20:03Z</time>
      </trkpt>
      <trkpt lat="44.94708" lon="-0.28626">
        <ele>25.6</ele>
        <time>2017-11-12T10:20:10Z</time>
      </trkpt>
      <trkpt lat="44.94699" lon="-0.2863">
        <ele>25.4</ele>
        <time>2017-11-12T10:20:18Z</time>
      </trkpt>
      <trkpt lat="44.94691" lon="-0.28636">
        <ele>23.8</ele>
        <time>2017-11-12T10:20:25Z</time>
      </trkpt>
      <trkpt lat="44.94683" lon="-0.2864">
        <ele>22.6</ele>
        <time>2017-11-12T10:20:33Z</time>
      </trkpt>
      <trkpt lat="44.94675" lon="-0.28642">
        <ele>24</ele>
        <time>2017-11-12T10:20:42Z</time>
      </trkpt>
      <trkpt lat="44.94668" lon="-0.28638">
        <ele>22.8</ele>
        <time>2017-11-12T10:20:50Z</time>
      </trkpt>
      <trkpt lat="44.9466" lon="-0.28635">
        <ele>21.5</ele>
        <time>2017-11-12T10:20:58Z</time>
      </trkpt>
      <trkpt lat="44.94652" lon="-0.28631">
        <ele>18.8</ele>
        <time>2017-11-12T10:21:04Z</time>
      </trkpt>
      <trkpt lat="44.94645" lon="-0.28627">
        <ele>18.7</ele>
        <time>2017-11-12T10:21:11Z</time>
      </trkpt>
      <trkpt lat="44.94637" lon="-0.28621">
        <ele>18.5</ele>
        <time>2017-11-12T10:21:20Z</time>
      </trkpt>
      <trkpt lat="44.9463" lon="-0.28616">
        <ele>18.4</ele>
        <time>2017-11-12T10:21:28Z</time>
      </trkpt>
      <trkpt lat="44.94622" lon="-0.28613">
        <ele>18.5</ele>
        <time>2017-11-12T10:21:35Z</time>
      </trkpt>
      <trkpt lat="44.94614" lon="-0.28608">
        <ele>18.7</ele>
        <time>2017-11-12T10:21:43Z</time>
      </trkpt>
      <trkpt lat="44.94607" lon="-0.28602">
        <ele>17.9</ele>
        <time>2017-11-12T10:21:50Z</time>
      </trkpt>
      <trkpt lat="44.94602" lon="-0.28594">
        <ele>16.5</ele>
        <time>2017-11-12T10:21:56Z</time>
      </trkpt>
      <trkpt lat="44.94594" lon="-0.28589">
        <ele>16.3</ele>
        <time>2017-11-12T10:22:02Z</time>
      </trkpt>
      <trkpt lat="44.94586" lon="-0.28586">
        <ele>18.1</ele>
        <time>2017-11-12T10:22:08Z</time>
      </trkpt>
      <trkpt lat="44.94577" lon="-0.28586">
        <ele>22.1</ele>
        <time>2017-11-12T10:22:13Z</time>
      </trkpt>
      <trkpt lat="44.9457" lon="-0.28583">
        <ele>22.8</ele>
        <time>2017-11-12T10:22:21Z</time>
      </trkpt>
      <trkpt lat="44.94561" lon="-0.28581">
        <ele>22.9</ele>
        <time>2017-11-12T10:22:28Z</time>
      </trkpt>
      <trkpt lat="44.94553" lon="-0.2858">
        <ele>24.1</ele>
        <time>2017-11-12T10:22:34Z</time>
      </trkpt>
      <trkpt lat="44.94545" lon="-0.2858">
        <ele>25.9</ele>
        <time>2017-11-12T10:22:41Z</time>
      </trkpt>
      <trkpt lat="44.94537" lon="-0.28581">
        <ele>26.3</ele>
        <time>2017-11-12T10:22:47Z</time>
      </trkpt>
      <trkpt lat="44.94528" lon="-0.28581">
        <ele>26.7</ele>
        <time>2017-11-12T10:22:53Z</time>
      </trkpt>
      <trkpt lat="44.9452" lon="-0.28582">
        <ele>25.9</ele>
        <time>2017-11-12T10:23:00Z</time>
      </trkpt>
      <trkpt lat="44.94511" lon="-0.28583">
        <ele>26</ele>
        <time>2017-11-12T10:23:07Z</time>
      </trkpt>
      <trkpt lat="44.94503" lon="-0.28579">
        <ele>24</ele>
        <time>2017-11-12T10:23:17Z</time>
      </trkpt>
      <trkpt lat="44.94499" lon="-0.28568">
        <ele>24.9</ele>
        <time>2017-11-12T10:23:26Z</time>
      </trkpt>
      <trkpt lat="44.94496" lon="-0.28556">
        <ele>25.9</ele>
        <time>2017-11-12T10:23:33Z</time>
      </trkpt>
      <trkpt lat="44.94494" lon="-0.28544">
        <ele>25.9</ele>
        <time>2017-11-12T10:23:40Z</time>
      </trkpt>
      <trkpt lat="44.94492" lon="-0.28533">
        <ele>25.7</ele>
        <time>2017-11-12T10:23:46Z</time>
      </trkpt>
      <trkpt lat="44.94489" lon="-0.28523">
        <ele>19.6</ele>
        <time>2017-11-12T10:23:59Z</time>
      </trkpt>
      <trkpt lat="44.94487" lon="-0.28511">
        <ele>18.8</ele>
        <time>2017-11-12T10:24:06Z</time>
      </trkpt>
      <trkpt lat="44.94486" lon="-0.28499">
        <ele>14.9</ele>
        <time>2017-11-12T10:24:18Z</time>
      </trkpt>
      <trkpt lat="44.94484" lon="-0.28488">
        <ele>13.6</ele>
        <time>2017-11-12T10:24:23Z</time>
      </trkpt>
      <trkpt lat="44.94481" lon="-0.28474">
        <ele>16.5</ele>
        <time>2017-11-12T10:24:28Z</time>
      </trkpt>
      <trkpt lat="44.94478" lon="-0.28464">
        <ele>18</ele>
        <time>2017-11-12T10:24:34Z</time>
      </trkpt>
      <trkpt lat="44.94475" lon="-0.28452">
        <ele>18</ele>
        <time>2017-11-12T10:24:41Z</time>
      </trkpt>
      <trkpt lat="44.94472" lon="-0.28441">
        <ele>18.8</ele>
        <time>2017-11-12T10:24:49Z</time>
      </trkpt>
      <trkpt lat="44.94469" lon="-0.2843">
        <ele>18.4</ele>
        <time>2017-11-12T10:24:56Z</time>
      </trkpt>
      <trkpt lat="44.94467" lon="-0.28418">
        <ele>15.8</ele>
        <time>2017-11-12T10:25:04Z</time>
      </trkpt>
      <trkpt lat="44.94463" lon="-0.28407">
        <ele>12.2</ele>
        <time>2017-11-12T10:25:11Z</time>
      </trkpt>
      <trkpt lat="44.9446" lon="-0.28396">
        <ele>6.8</ele>
        <time>2017-11-12T10:25:22Z</time>
      </trkpt>
      <trkpt lat="44.94458" lon="-0.28385">
        <ele>7.4</ele>
        <time>2017-11-12T10:25:31Z</time>
      </trkpt>
      <trkpt lat="44.94456" lon="-0.28373">
        <ele>9.1</ele>
        <time>2017-11-12T10:25:41Z</time>
      </trkpt>
      <trkpt lat="44.94452" lon="-0.28363">
        <ele>12.8</ele>
        <time>2017-11-12T10:25:52Z</time>
      </trkpt>
      <trkpt lat="44.94451" lon="-0.28351">
        <ele>15.6</ele>
        <time>2017-11-12T10:26:00Z</time>
      </trkpt>
      <trkpt lat="44.9445" lon="-0.2834">
        <ele>15.7</ele>
        <time>2017-11-12T10:26:07Z</time>
      </trkpt>
      <trkpt lat="44.94447" lon="-0.28328">
        <ele>17.5</ele>
        <time>2017-11-12T10:26:13Z</time>
      </trkpt>
      <trkpt lat="44.94446" lon="-0.28316">
        <ele>16.1</ele>
        <time>2017-11-12T10:26:20Z</time>
      </trkpt>
      <trkpt lat="44.94445" lon="-0.28304">
        <ele>15</ele>
        <time>2017-11-12T10:26:27Z</time>
      </trkpt>
      <trkpt lat="44.94443" lon="-0.28292">
        <ele>15</ele>
        <time>2017-11-12T10:26:35Z</time>
      </trkpt>
      <trkpt lat="44.9444" lon="-0.28281">
        <ele>15.7</ele>
        <time>2017-11-12T10:26:41Z</time>
      </trkpt>
      <trkpt lat="44.94439" lon="-0.2827">
        <ele>12.9</ele>
        <time>2017-11-12T10:26:50Z</time>
      </trkpt>
      <trkpt lat="44.94436" lon="-0.28259">
        <ele>9</ele>
        <time>2017-11-12T10:26:59Z</time>
      </trkpt>
      <trkpt lat="44.94433" lon="-0.28247">
        <ele>9.1</ele>
        <time>2017-11-12T10:27:05Z</time>
      </trkpt>
      <trkpt lat="44.94431" lon="-0.28236">
        <ele>7.9</ele>
        <time>2017-11-12T10:27:13Z</time>
      </trkpt>
      <trkpt lat="44.94426" lon="-0.28227">
        <ele>11.5</ele>
        <time>2017-11-12T10:27:19Z</time>
      </trkpt>
      <trkpt lat="44.94424" lon="-0.28215">
        <ele>9.3</ele>
        <time>2017-11-12T10:27:25Z</time>
      </trkpt>
      <trkpt lat="44.94422" lon="-0.28203">
        <ele>2.9</ele>
        <time>2017-11-12T10:27:36Z</time>
      </trkpt>
      <trkpt lat="44.9442" lon="-0.28191">
        <ele>0.6</ele>
        <time>2017-11-12T10:27:45Z</time>
      </trkpt>
      <trkpt lat="44.94424" lon="-0.2818">
        <ele>-0.6</ele>
        <time>2017-11-12T10:27:56Z</time>
      </trkpt>
      <trkpt lat="44.94428" lon="-0.28169">
        <ele>-5.3</ele>
        <time>2017-11-12T10:28:04Z</time>
      </trkpt>
      <trkpt lat="44.94431" lon="-0.28157">
        <ele>-9.3</ele>
        <time>2017-11-12T10:28:11Z</time>
      </trkpt>
      <trkpt lat="44.94432" lon="-0.28145">
        <ele>-10.1</ele>
        <time>2017-11-12T10:28:18Z</time>
      </trkpt>
      <trkpt lat="44.94433" lon="-0.28134">
        <ele>-9.4</ele>
        <time>2017-11-12T10:28:24Z</time>
      </trkpt>
      <trkpt lat="44.94435" lon="-0.28121">
        <ele>-11</ele>
        <time>2017-11-12T10:28:31Z</time>
      </trkpt>
      <trkpt lat="44.94437" lon="-0.2811">
        <ele>-18</ele>
        <time>2017-11-12T10:28:48Z</time>
      </trkpt>
      <trkpt lat="44.94439" lon="-0.28101">
        <ele>-19.9</ele>
        <time>2017-11-12T10:28:57Z</time>
      </trkpt>
      <trkpt lat="44.9444" lon="-0.28089">
        <ele>-18.4</ele>
        <time>2017-11-12T10:29:03Z</time>
      </trkpt>
      <trkpt lat="44.94443" lon="-0.28079">
        <ele>-18.8</ele>
        <time>2017-11-12T10:29:12Z</time>
      </trkpt>
      <trkpt lat="44.94442" lon="-0.28063">
        <ele>-15.4</ele>
        <time>2017-11-12T10:29:16Z</time>
      </trkpt>
      <trkpt lat="44.94451" lon="-0.28064">
        <ele>-17.2</ele>
        <time>2017-11-12T10:29:25Z</time>
      </trkpt>
      <trkpt lat="44.94457" lon="-0.28073">
        <ele>-22.1</ele>
        <time>2017-11-12T10:29:29Z</time>
      </trkpt>
      <trkpt lat="44.94463" lon="-0.28081">
        <ele>-27.8</ele>
        <time>2017-11-12T10:29:33Z</time>
      </trkpt>
      <trkpt lat="44.94469" lon="-0.28087">
        <ele>-38.2</ele>
        <time>2017-11-12T10:29:39Z</time>
      </trkpt>
      <trkpt lat="44.94478" lon="-0.28087">
        <ele>-39.2</ele>
        <time>2017-11-12T10:29:45Z</time>
      </trkpt>
      <trkpt lat="44.94485" lon="-0.28083">
        <ele>-39.8</ele>
        <time>2017-11-12T10:29:51Z</time>
      </trkpt>
      <trkpt lat="44.94493" lon="-0.28078">
        <ele>-36.3</ele>
        <time>2017-11-12T10:29:56Z</time>
      </trkpt>
      <trkpt lat="44.94495" lon="-0.28066">
        <ele>-31.4</ele>
        <time>2017-11-12T10:30:04Z</time>
      </trkpt>
      <trkpt lat="44.94502" lon="-0.28057">
        <ele>-32.2</ele>
        <time>2017-11-12T10:30:12Z</time>
      </trkpt>
      <trkpt lat="44.94506" lon="-0.2805">
        <ele>-31</ele>
        <time>2017-11-12T10:30:16Z</time>
      </trkpt>
      <trkpt lat="44.94507" lon="-0.28031">
        <ele>-27.4</ele>
        <time>2017-11-12T10:30:21Z</time>
      </trkpt>
      <trkpt lat="44.9451" lon="-0.28023">
        <ele>-25.5</ele>
        <time>2017-11-12T10:30:25Z</time>
      </trkpt>
      <trkpt lat="44.94515" lon="-0.28013">
        <ele>-23.6</ele>
        <time>2017-11-12T10:30:30Z</time>
      </trkpt>
      <trkpt lat="44.9452" lon="-0.28004">
        <ele>-23</ele>
        <time>2017-11-12T10:30:36Z</time>
      </trkpt>
      <trkpt lat="44.94525" lon="-0.27995">
        <ele>-23.9</ele>
        <time>2017-11-12T10:30:42Z</time>
      </trkpt>
      <trkpt lat="44.94527" lon="-0.27983">
        <ele>-24</ele>
        <time>2017-11-12T10:30:50Z</time>
      </trkpt>
      <trkpt lat="44.94526" lon="-0.27971">
        <ele>-26.9</ele>
        <time>2017-11-12T10:30:58Z</time>
      </trkpt>
      <trkpt lat="44.94526" lon="-0.2796">
        <ele>-27.7</ele>
        <time>2017-11-12T10:31:04Z</time>
      </trkpt>
      <trkpt lat="44.94525" lon="-0.27949">
        <ele>-29.5</ele>
        <time>2017-11-12T10:31:08Z</time>
      </trkpt>
      <trkpt lat="44.94526" lon="-0.27938">
        <ele>-32.6</ele>
        <time>2017-11-12T10:31:15Z</time>
      </trkpt>
      <trkpt lat="44.94526" lon="-0.27927">
        <ele>-31</ele>
        <time>2017-11-12T10:31:20Z</time>
      </trkpt>
      <trkpt lat="44.94528" lon="-0.27915">
        <ele>-28.6</ele>
        <time>2017-11-12T10:31:26Z</time>
      </trkpt>
      <trkpt lat="44.94532" lon="-0.27905">
        <ele>-26.4</ele>
        <time>2017-11-12T10:31:33Z</time>
      </trkpt>
      <trkpt lat="44.94538" lon="-0.27896">
        <ele>-27.8</ele>
        <time>2017-11-12T10:31:41Z</time>
      </trkpt>
      <trkpt lat="44.94543" lon="-0.27886">
        <ele>-28</ele>
        <time>2017-11-12T10:31:48Z</time>
      </trkpt>
      <trkpt lat="44.94548" lon="-0.27878">
        <ele>-29.8</ele>
        <time>2017-11-12T10:31:54Z</time>
      </trkpt>
      <trkpt lat="44.94554" lon="-0.27871">
        <ele>-30.6</ele>
        <time>2017-11-12T10:32:00Z</time>
      </trkpt>
      <trkpt lat="44.9456" lon="-0.27863">
        <ele>-31.6</ele>
        <time>2017-11-12T10:32:06Z</time>
      </trkpt>
      <trkpt lat="44.94568" lon="-0.27859">
        <ele>-34.7</ele>
        <time>2017-11-12T10:32:13Z</time>
      </trkpt>
      <trkpt lat="44.94576" lon="-0.27862">
        <ele>-43.1</ele>
        <time>2017-11-12T10:32:18Z</time>
      </trkpt>
      <trkpt lat="44.94583" lon="-0.27861">
        <ele>-49.9</ele>
        <time>2017-11-12T10:32:23Z</time>
      </trkpt>
      <trkpt lat="44.94591" lon="-0.27857">
        <ele>-54.8</ele>
        <time>2017-11-12T10:32:30Z</time>
      </trkpt>
      <trkpt lat="44.94596" lon="-0.27847">
        <ele>-55.2</ele>
        <time>2017-11-12T10:32:37Z</time>
      </trkpt>
      <trkpt lat="44.94599" lon="-0.27837">
        <ele>-53.5</ele>
        <time>2017-11-12T10:32:43Z</time>
      </trkpt>
      <trkpt lat="44.94599" lon="-0.27826">
        <ele>-53.7</ele>
        <time>2017-11-12T10:32:49Z</time>
      </trkpt>
      <trkpt lat="44.94602" lon="-0.27814">
        <ele>-54.4</ele>
        <time>2017-11-12T10:32:55Z</time>
      </trkpt>
      <trkpt lat="44.946" lon="-0.27804">
        <ele>-50</ele>
        <time>2017-11-12T10:32:59Z</time>
      </trkpt>
      <trkpt lat="44.94599" lon="-0.27794">
        <ele>-49.2</ele>
        <time>2017-11-12T10:33:04Z</time>
      </trkpt>
      <trkpt lat="44.94598" lon="-0.27782">
        <ele>-45.2</ele>
        <time>2017-11-12T10:33:11Z</time>
      </trkpt>
      <trkpt lat="44.94593" lon="-0.27772">
        <ele>-41.2</ele>
        <time>2017-11-12T10:33:16Z</time>
      </trkpt>
      <trkpt lat="44.94591" lon="-0.27761">
        <ele>-40.4</ele>
        <time>2017-11-12T10:33:21Z</time>
      </trkpt>
      <trkpt lat="44.9459" lon="-0.2775">
        <ele>-40</ele>
        <time>2017-11-12T10:33:26Z</time>
      </trkpt>
      <trkpt lat="44.94588" lon="-0.27738">
        <ele>-39.4</ele>
        <time>2017-11-12T10:33:33Z</time>
      </trkpt>
      <trkpt lat="44.94587" lon="-0.27728">
        <ele>-38.4</ele>
        <time>2017-11-12T10:33:40Z</time>
      </trkpt>
      <trkpt lat="44.94584" lon="-0.27715">
        <ele>-32.1</ele>
        <time>2017-11-12T10:33:45Z</time>
      </trkpt>
      <trkpt lat="44.94586" lon="-0.27703">
        <ele>-31.4</ele>
        <time>2017-11-12T10:33:51Z</time>
      </trkpt>
      <trkpt lat="44.94589" lon="-0.27692">
        <ele>-31.8</ele>
        <time>2017-11-12T10:33:59Z</time>
      </trkpt>
      <trkpt lat="44.94593" lon="-0.27681">
        <ele>-33.6</ele>
        <time>2017-11-12T10:34:07Z</time>
      </trkpt>
      <trkpt lat="44.94596" lon="-0.2767">
        <ele>-33.5</ele>
        <time>2017-11-12T10:34:13Z</time>
      </trkpt>
      <trkpt lat="44.94598" lon="-0.27659">
        <ele>-34.7</ele>
        <time>2017-11-12T10:34:21Z</time>
      </trkpt>
      <trkpt lat="44.94598" lon="-0.27647">
        <ele>-33.5</ele>
        <time>2017-11-12T10:34:27Z</time>
      </trkpt>
      <trkpt lat="44.94596" lon="-0.27636">
        <ele>-32.5</ele>
        <time>2017-11-12T10:34:33Z</time>
      </trkpt>
      <trkpt lat="44.94594" lon="-0.27623">
        <ele>-34.8</ele>
        <time>2017-11-12T10:34:45Z</time>
      </trkpt>
      <trkpt lat="44.94591" lon="-0.27612">
        <ele>-37.9</ele>
        <time>2017-11-12T10:34:54Z</time>
      </trkpt>
      <trkpt lat="44.94591" lon="-0.276">
        <ele>-42.4</ele>
        <time>2017-11-12T10:35:28Z</time>
      </trkpt>
      <trkpt lat="44.94586" lon="-0.27591">
        <ele>-41</ele>
        <time>2017-11-12T10:36:50Z</time>
      </trkpt>
      <trkpt lat="44.9458" lon="-0.27583">
        <ele>-39.2</ele>
        <time>2017-11-12T10:36:58Z</time>
      </trkpt>
      <trkpt lat="44.94575" lon="-0.27573">
        <ele>-36.3</ele>
        <time>2017-11-12T10:37:03Z</time>
      </trkpt>
      <trkpt lat="44.94572" lon="-0.27564">
        <ele>-34</ele>
        <time>2017-11-12T10:37:07Z</time>
      </trkpt>
      <trkpt lat="44.94569" lon="-0.27554">
        <ele>-32.1</ele>
        <time>2017-11-12T10:37:12Z</time>
      </trkpt>
      <trkpt lat="44.94565" lon="-0.27544">
        <ele>-31.8</ele>
        <time>2017-11-12T10:37:18Z</time>
      </trkpt>
      <trkpt lat="44.94562" lon="-0.27534">
        <ele>-30.4</ele>
        <time>2017-11-12T10:37:24Z</time>
      </trkpt>
      <trkpt lat="44.94555" lon="-0.27527">
        <ele>-39.8</ele>
        <time>2017-11-12T10:37:41Z</time>
      </trkpt>
      <trkpt lat="44.94553" lon="-0.27514">
        <ele>-44.4</ele>
        <time>2017-11-12T10:37:45Z</time>
      </trkpt>
      <trkpt lat="44.94552" lon="-0.27503">
        <ele>-37.6</ele>
        <time>2017-11-12T10:38:06Z</time>
      </trkpt>
      <trkpt lat="44.94555" lon="-0.27513">
        <ele>-49.4</ele>
        <time>2017-11-12T10:39:04Z</time>
      </trkpt>
      <trkpt lat="44.94548" lon="-0.27492">
        <ele>-51</ele>
        <time>2017-11-12T10:39:08Z</time>
      </trkpt>
      <trkpt lat="44.9454" lon="-0.27494">
        <ele>-49.4</ele>
        <time>2017-11-12T10:39:18Z</time>
      </trkpt>
      <trkpt lat="44.94532" lon="-0.27495">
        <ele>-44.8</ele>
        <time>2017-11-12T10:39:26Z</time>
      </trkpt>
      <trkpt lat="44.94524" lon="-0.27498">
        <ele>-46.6</ele>
        <time>2017-11-12T10:39:34Z</time>
      </trkpt>
      <trkpt lat="44.94515" lon="-0.27498">
        <ele>-46</ele>
        <time>2017-11-12T10:39:40Z</time>
      </trkpt>
      <trkpt lat="44.94507" lon="-0.27501">
        <ele>-42.8</ele>
        <time>2017-11-12T10:39:48Z</time>
      </trkpt>
      <trkpt lat="44.94499" lon="-0.27506">
        <ele>-38.7</ele>
        <time>2017-11-12T10:39:54Z</time>
      </trkpt>
      <trkpt lat="44.94491" lon="-0.27511">
        <ele>-36.1</ele>
        <time>2017-11-12T10:40:01Z</time>
      </trkpt>
      <trkpt lat="44.94483" lon="-0.27515">
        <ele>-35.5</ele>
        <time>2017-11-12T10:40:10Z</time>
      </trkpt>
      <trkpt lat="44.94476" lon="-0.27521">
        <ele>-35.9</ele>
        <time>2017-11-12T10:40:17Z</time>
      </trkpt>
      <trkpt lat="44.94468" lon="-0.27526">
        <ele>-36.6</ele>
        <time>2017-11-12T10:40:26Z</time>
      </trkpt>
      <trkpt lat="44.94461" lon="-0.27531">
        <ele>-36.1</ele>
        <time>2017-11-12T10:40:37Z</time>
      </trkpt>
      <trkpt lat="44.94454" lon="-0.27537">
        <ele>-33.2</ele>
        <time>2017-11-12T10:40:47Z</time>
      </trkpt>
      <trkpt lat="44.94446" lon="-0.27538">
        <ele>-31.6</ele>
        <time>2017-11-12T10:40:58Z</time>
      </trkpt>
      <trkpt lat="44.94438" lon="-0.27537">
        <ele>-30.2</ele>
        <time>2017-11-12T10:41:08Z</time>
      </trkpt>
      <trkpt lat="44.94429" lon="-0.27536">
        <ele>-27</ele>
        <time>2017-11-12T10:41:19Z</time>
      </trkpt>
      <trkpt lat="44.94421" lon="-0.27532">
        <ele>-27.5</ele>
        <time>2017-11-12T10:41:28Z</time>
      </trkpt>
      <trkpt lat="44.94415" lon="-0.27523">
        <ele>-31.6</ele>
        <time>2017-11-12T10:41:36Z</time>
      </trkpt>
      <trkpt lat="44.94407" lon="-0.2752">
        <ele>-31.2</ele>
        <time>2017-11-12T10:41:44Z</time>
      </trkpt>
      <trkpt lat="44.94398" lon="-0.27522">
        <ele>-29.8</ele>
        <time>2017-11-12T10:41:55Z</time>
      </trkpt>
      <trkpt lat="44.9439" lon="-0.2752">
        <ele>-33.2</ele>
        <time>2017-11-12T10:42:20Z</time>
      </trkpt>
      <trkpt lat="44.94382" lon="-0.27525">
        <ele>-34.1</ele>
        <time>2017-11-12T10:42:27Z</time>
      </trkpt>
      <trkpt lat="44.94374" lon="-0.27529">
        <ele>-36.6</ele>
        <time>2017-11-12T10:42:34Z</time>
      </trkpt>
      <trkpt lat="44.94365" lon="-0.27528">
        <ele>-48.5</ele>
        <time>2017-11-12T10:42:44Z</time>
      </trkpt>
      <trkpt lat="44.94356" lon="-0.27526">
        <ele>-61.8</ele>
        <time>2017-11-12T10:42:54Z</time>
      </trkpt>
      <trkpt lat="44.94348" lon="-0.27525">
        <ele>-72.9</ele>
        <time>2017-11-12T10:43:03Z</time>
      </trkpt>
      <trkpt lat="44.94341" lon="-0.27529">
        <ele>-76.7</ele>
        <time>2017-11-12T10:43:09Z</time>
      </trkpt>
      <trkpt lat="44.94333" lon="-0.27533">
        <ele>-78.8</ele>
        <time>2017-11-12T10:43:15Z</time>
      </trkpt>
      <trkpt lat="44.94326" lon="-0.27538">
        <ele>-79.9</ele>
        <time>2017-11-12T10:43:21Z</time>
      </trkpt>
      <trkpt lat="44.94319" lon="-0.27546">
        <ele>-76.9</ele>
        <time>2017-11-12T10:43:27Z</time>
      </trkpt>
      <trkpt lat="44.94313" lon="-0.27554">
        <ele>-72.5</ele>
        <time>2017-11-12T10:43:32Z</time>
      </trkpt>
      <trkpt lat="44.94308" lon="-0.2756">
        <ele>-69.7</ele>
        <time>2017-11-12T10:43:36Z</time>
      </trkpt>
      <trkpt lat="44.94302" lon="-0.27568">
        <ele>-64.2</ele>
        <time>2017-11-12T10:43:41Z</time>
      </trkpt>
      <trkpt lat="44.94295" lon="-0.27575">
        <ele>-59.8</ele>
        <time>2017-11-12T10:43:46Z</time>
      </trkpt>
      <trkpt lat="44.94288" lon="-0.27582">
        <ele>-53.8</ele>
        <time>2017-11-12T10:43:51Z</time>
      </trkpt>
      <trkpt lat="44.94282" lon="-0.2759">
        <ele>-48.5</ele>
        <time>2017-11-12T10:43:55Z</time>
      </trkpt>
      <trkpt lat="44.94274" lon="-0.27595">
        <ele>-43.7</ele>
        <time>2017-11-12T10:44:01Z</time>
      </trkpt>
      <trkpt lat="44.94268" lon="-0.27603">
        <ele>-41.3</ele>
        <time>2017-11-12T10:44:06Z</time>
      </trkpt>
      <trkpt lat="44.94264" lon="-0.27615">
        <ele>-39.5</ele>
        <time>2017-11-12T10:44:13Z</time>
      </trkpt>
      <trkpt lat="44.94264" lon="-0.27626">
        <ele>-39.1</ele>
        <time>2017-11-12T10:44:21Z</time>
      </trkpt>
      <trkpt lat="44.94263" lon="-0.27638">
        <ele>-39.8</ele>
        <time>2017-11-12T10:44:29Z</time>
      </trkpt>
      <trkpt lat="44.94258" lon="-0.27648">
        <ele>-39</ele>
        <time>2017-11-12T10:44:38Z</time>
      </trkpt>
      <trkpt lat="44.9425" lon="-0.27651">
        <ele>-37.4</ele>
        <time>2017-11-12T10:44:47Z</time>
      </trkpt>
      <trkpt lat="44.94242" lon="-0.27654">
        <ele>-35.8</ele>
        <time>2017-11-12T10:44:55Z</time>
      </trkpt>
      <trkpt lat="44.94233" lon="-0.27656">
        <ele>-34.6</ele>
        <time>2017-11-12T10:45:03Z</time>
      </trkpt>
      <trkpt lat="44.94225" lon="-0.27659">
        <ele>-33.7</ele>
        <time>2017-11-12T10:45:11Z</time>
      </trkpt>
      <trkpt lat="44.94216" lon="-0.27663">
        <ele>-32.1</ele>
        <time>2017-11-12T10:45:18Z</time>
      </trkpt>
      <trkpt lat="44.94208" lon="-0.27664">
        <ele>-33.1</ele>
        <time>2017-11-12T10:45:26Z</time>
      </trkpt>
      <trkpt lat="44.942" lon="-0.27666">
        <ele>-33.9</ele>
        <time>2017-11-12T10:45:43Z</time>
      </trkpt>
      <trkpt lat="44.94192" lon="-0.27669">
        <ele>-35.9</ele>
        <time>2017-11-12T10:45:53Z</time>
      </trkpt>
      <trkpt lat="44.94184" lon="-0.27672">
        <ele>-35.9</ele>
        <time>2017-11-12T10:46:01Z</time>
      </trkpt>
      <trkpt lat="44.94176" lon="-0.27676">
        <ele>-34.1</ele>
        <time>2017-11-12T10:46:08Z</time>
      </trkpt>
      <trkpt lat="44.94168" lon="-0.2768">
        <ele>-29.3</ele>
        <time>2017-11-12T10:46:17Z</time>
      </trkpt>
      <trkpt lat="44.94159" lon="-0.27679">
        <ele>-31.6</ele>
        <time>2017-11-12T10:46:28Z</time>
      </trkpt>
      <trkpt lat="44.94151" lon="-0.27679">
        <ele>-31.2</ele>
        <time>2017-11-12T10:46:36Z</time>
      </trkpt>
      <trkpt lat="44.94143" lon="-0.2768">
        <ele>-32.3</ele>
        <time>2017-11-12T10:46:45Z</time>
      </trkpt>
      <trkpt lat="44.94135" lon="-0.27682">
        <ele>-33.4</ele>
        <time>2017-11-12T10:46:54Z</time>
      </trkpt>
      <trkpt lat="44.94127" lon="-0.27686">
        <ele>-33.5</ele>
        <time>2017-11-12T10:47:03Z</time>
      </trkpt>
      <trkpt lat="44.94119" lon="-0.27691">
        <ele>-32</ele>
        <time>2017-11-12T10:47:13Z</time>
      </trkpt>
      <trkpt lat="44.94113" lon="-0.277">
        <ele>-30.7</ele>
        <time>2017-11-12T10:47:23Z</time>
      </trkpt>
      <trkpt lat="44.94113" lon="-0.27711">
        <ele>-28.2</ele>
        <time>2017-11-12T10:47:33Z</time>
      </trkpt>
      <trkpt lat="44.94113" lon="-0.27722">
        <ele>-28.1</ele>
        <time>2017-11-12T10:47:41Z</time>
      </trkpt>
      <trkpt lat="44.94109" lon="-0.27732">
        <ele>-31.8</ele>
        <time>2017-11-12T10:47:46Z</time>
      </trkpt>
      <trkpt lat="44.94106" lon="-0.27742">
        <ele>-35.1</ele>
        <time>2017-11-12T10:47:57Z</time>
      </trkpt>
      <trkpt lat="44.9411" lon="-0.27753">
        <ele>-31.9</ele>
        <time>2017-11-12T10:48:12Z</time>
      </trkpt>
      <trkpt lat="44.9411" lon="-0.27765">
        <ele>-31.1</ele>
        <time>2017-11-12T10:48:24Z</time>
      </trkpt>
      <trkpt lat="44.94108" lon="-0.27777">
        <ele>-28.6</ele>
        <time>2017-11-12T10:48:35Z</time>
      </trkpt>
      <trkpt lat="44.94107" lon="-0.2779">
        <ele>-27.7</ele>
        <time>2017-11-12T10:48:45Z</time>
      </trkpt>
      <trkpt lat="44.94107" lon="-0.27799">
        <ele>-28.5</ele>
        <time>2017-11-12T10:49:26Z</time>
      </trkpt>
      <trkpt lat="44.941" lon="-0.27808">
        <ele>-21.6</ele>
        <time>2017-11-12T10:49:36Z</time>
      </trkpt>
      <trkpt lat="44.94093" lon="-0.27802">
        <ele>-15.5</ele>
        <time>2017-11-12T10:49:53Z</time>
      </trkpt>
      <trkpt lat="44.94084" lon="-0.27797">
        <ele>-17.5</ele>
        <time>2017-11-12T10:50:09Z</time>
      </trkpt>
      <trkpt lat="44.94076" lon="-0.27797">
        <ele>-16.9</ele>
        <time>2017-11-12T10:50:19Z</time>
      </trkpt>
      <trkpt lat="44.94067" lon="-0.27798">
        <ele>-14.5</ele>
        <time>2017-11-12T10:50:29Z</time>
      </trkpt>
      <trkpt lat="44.94059" lon="-0.27795">
        <ele>-14.5</ele>
        <time>2017-11-12T10:50:40Z</time>
      </trkpt>
      <trkpt lat="44.9405" lon="-0.27794">
        <ele>-16.1</ele>
        <time>2017-11-12T10:51:02Z</time>
      </trkpt>
      <trkpt lat="44.94042" lon="-0.278">
        <ele>-12.6</ele>
        <time>2017-11-12T10:51:19Z</time>
      </trkpt>
      <trkpt lat="44.94037" lon="-0.2781">
        <ele>-9.6</ele>
        <time>2017-11-12T10:51:35Z</time>
      </trkpt>
      <trkpt lat="44.9403" lon="-0.27817">
        <ele>-11.3</ele>
        <time>2017-11-12T10:52:05Z</time>
      </trkpt>
      <trkpt lat="44.94024" lon="-0.27823">
        <ele>-10.3</ele>
        <time>2017-11-12T10:52:12Z</time>
      </trkpt>
      <trkpt lat="44.94016" lon="-0.27829">
        <ele>-11.3</ele>
        <time>2017-11-12T10:52:19Z</time>
      </trkpt>
      <trkpt lat="44.94011" lon="-0.27835">
        <ele>-11</ele>
        <time>2017-11-12T10:52:23Z</time>
      </trkpt>
      <trkpt lat="44.94005" lon="-0.27843">
        <ele>-10.8</ele>
        <time>2017-11-12T10:52:29Z</time>
      </trkpt>
      <trkpt lat="44.93999" lon="-0.27851">
        <ele>-10.1</ele>
        <time>2017-11-12T10:52:37Z</time>
      </trkpt>
      <trkpt lat="44.93992" lon="-0.27858">
        <ele>-11.4</ele>
        <time>2017-11-12T10:52:46Z</time>
      </trkpt>
      <trkpt lat="44.93989" lon="-0.27869">
        <ele>-13.1</ele>
        <time>2017-11-12T10:52:53Z</time>
      </trkpt>
      <trkpt lat="44.93988" lon="-0.27881">
        <ele>-19.4</ele>
        <time>2017-11-12T10:53:06Z</time>
      </trkpt>
      <trkpt lat="44.93986" lon="-0.27892">
        <ele>-20</ele>
        <time>2017-11-12T10:53:16Z</time>
      </trkpt>
      <trkpt lat="44.93982" lon="-0.27904">
        <ele>-15.6</ele>
        <time>2017-11-12T10:53:25Z</time>
      </trkpt>
      <trkpt lat="44.93979" lon="-0.27915">
        <ele>-14.2</ele>
        <time>2017-11-12T10:53:34Z</time>
      </trkpt>
      <trkpt lat="44.93976" lon="-0.27926">
        <ele>-14</ele>
        <time>2017-11-12T10:53:44Z</time>
      </trkpt>
      <trkpt lat="44.93975" lon="-0.27938">
        <ele>-14</ele>
        <time>2017-11-12T10:53:52Z</time>
      </trkpt>
      <trkpt lat="44.93973" lon="-0.2795">
        <ele>-11.9</ele>
        <time>2017-11-12T10:54:00Z</time>
      </trkpt>
      <trkpt lat="44.93971" lon="-0.27962">
        <ele>-10.3</ele>
        <time>2017-11-12T10:54:08Z</time>
      </trkpt>
      <trkpt lat="44.9397" lon="-0.27973">
        <ele>-10.4</ele>
        <time>2017-11-12T10:54:16Z</time>
      </trkpt>
      <trkpt lat="44.93968" lon="-0.27984">
        <ele>-12.2</ele>
        <time>2017-11-12T10:54:24Z</time>
      </trkpt>
      <trkpt lat="44.93967" lon="-0.27996">
        <ele>-12.4</ele>
        <time>2017-11-12T10:54:32Z</time>
      </trkpt>
      <trkpt lat="44.93967" lon="-0.28008">
        <ele>-10.7</ele>
        <time>2017-11-12T10:54:41Z</time>
      </trkpt>
      <trkpt lat="44.93964" lon="-0.2802">
        <ele>-10.8</ele>
        <time>2017-11-12T10:54:51Z</time>
      </trkpt>
      <trkpt lat="44.93964" lon="-0.28032">
        <ele>-11.6</ele>
        <time>2017-11-12T10:55:02Z</time>
      </trkpt>
      <trkpt lat="44.93962" lon="-0.28043">
        <ele>-11.9</ele>
        <time>2017-11-12T10:55:12Z</time>
      </trkpt>
      <trkpt lat="44.93961" lon="-0.28055">
        <ele>-13.4</ele>
        <time>2017-11-12T10:55:21Z</time>
      </trkpt>
      <trkpt lat="44.9396" lon="-0.28068">
        <ele>-14.6</ele>
        <time>2017-11-12T10:55:31Z</time>
      </trkpt>
      <trkpt lat="44.93959" lon="-0.2808">
        <ele>-13.2</ele>
        <time>2017-11-12T10:55:41Z</time>
      </trkpt>
      <trkpt lat="44.93956" lon="-0.28091">
        <ele>-13.5</ele>
        <time>2017-11-12T10:55:52Z</time>
      </trkpt>
      <trkpt lat="44.93954" lon="-0.28103">
        <ele>-12.1</ele>
        <time>2017-11-12T10:56:00Z</time>
      </trkpt>
      <trkpt lat="44.93952" lon="-0.28115">
        <ele>-11.4</ele>
        <time>2017-11-12T10:56:10Z</time>
      </trkpt>
      <trkpt lat="44.93953" lon="-0.28128">
        <ele>-10.3</ele>
        <time>2017-11-12T10:56:29Z</time>
      </trkpt>
      <trkpt lat="44.9395" lon="-0.28139">
        <ele>-13.5</ele>
        <time>2017-11-12T10:56:38Z</time>
      </trkpt>
      <trkpt lat="44.93949" lon="-0.28151">
        <ele>-14.4</ele>
        <time>2017-11-12T10:56:50Z</time>
      </trkpt>
      <trkpt lat="44.9395" lon="-0.28164">
        <ele>-13.7</ele>
        <time>2017-11-12T10:57:02Z</time>
      </trkpt>
      <trkpt lat="44.9395" lon="-0.28176">
        <ele>-12.7</ele>
        <time>2017-11-12T10:57:12Z</time>
      </trkpt>
      <trkpt lat="44.93952" lon="-0.28187">
        <ele>-10.7</ele>
        <time>2017-11-12T10:57:22Z</time>
      </trkpt>
      <trkpt lat="44.93953" lon="-0.28199">
        <ele>-8.7</ele>
        <time>2017-11-12T10:57:32Z</time>
      </trkpt>
      <trkpt lat="44.93951" lon="-0.2821">
        <ele>-9.3</ele>
        <time>2017-11-12T10:57:41Z</time>
      </trkpt>
      <trkpt lat="44.93953" lon="-0.28223">
        <ele>-7.6</ele>
        <time>2017-11-12T10:57:56Z</time>
      </trkpt>
      <trkpt lat="44.93953" lon="-0.28235">
        <ele>-7.8</ele>
        <time>2017-11-12T10:58:08Z</time>
      </trkpt>
      <trkpt lat="44.93951" lon="-0.28247">
        <ele>-6.8</ele>
        <time>2017-11-12T10:58:18Z</time>
      </trkpt>
      <trkpt lat="44.93953" lon="-0.28259">
        <ele>-6.7</ele>
        <time>2017-11-12T10:58:28Z</time>
      </trkpt>
      <trkpt lat="44.93954" lon="-0.28271">
        <ele>-7</ele>
        <time>2017-11-12T10:58:37Z</time>
      </trkpt>
      <trkpt lat="44.93954" lon="-0.28283">
        <ele>-6</ele>
        <time>2017-11-12T10:58:51Z</time>
      </trkpt>
      <trkpt lat="44.9396" lon="-0.28292">
        <ele>-2.9</ele>
        <time>2017-11-12T10:59:04Z</time>
      </trkpt>
      <trkpt lat="44.93957" lon="-0.283">
        <ele>-6.4</ele>
        <time>2017-11-12T10:59:15Z</time>
      </trkpt>
      <trkpt lat="44.9395" lon="-0.28308">
        <ele>-9</ele>
        <time>2017-11-12T10:59:19Z</time>
      </trkpt>
      <trkpt lat="44.93942" lon="-0.28303">
        <ele>-3.2</ele>
        <time>2017-11-12T10:59:30Z</time>
      </trkpt>
      <trkpt lat="44.93935" lon="-0.28297">
        <ele>-1.1</ele>
        <time>2017-11-12T10:59:40Z</time>
      </trkpt>
      <trkpt lat="44.93927" lon="-0.28291">
        <ele>1.6</ele>
        <time>2017-11-12T10:59:56Z</time>
      </trkpt>
      <trkpt lat="44.93919" lon="-0.28287">
        <ele>0.8</ele>
        <time>2017-11-12T11:00:14Z</time>
      </trkpt>
      <trkpt lat="44.93911" lon="-0.28286">
        <ele>-0.9</ele>
        <time>2017-11-12T11:00:24Z</time>
      </trkpt>
      <trkpt lat="44.93903" lon="-0.28284">
        <ele>-1.9</ele>
        <time>2017-11-12T11:00:32Z</time>
      </trkpt>
      <trkpt lat="44.93895" lon="-0.28283">
        <ele>-6</ele>
        <time>2017-11-12T11:00:41Z</time>
      </trkpt>
      <trkpt lat="44.93887" lon="-0.2828">
        <ele>-9</ele>
        <time>2017-11-12T11:00:48Z</time>
      </trkpt>
      <trkpt lat="44.93879" lon="-0.28275">
        <ele>-9.7</ele>
        <time>2017-11-12T11:00:53Z</time>
      </trkpt>
      <trkpt lat="44.93871" lon="-0.28269">
        <ele>-11.6</ele>
        <time>2017-11-12T11:00:59Z</time>
      </trkpt>
      <trkpt lat="44.93865" lon="-0.28261">
        <ele>-16.6</ele>
        <time>2017-11-12T11:01:05Z</time>
      </trkpt>
      <trkpt lat="44.93857" lon="-0.28255">
        <ele>-22</ele>
        <time>2017-11-12T11:01:12Z</time>
      </trkpt>
      <trkpt lat="44.93849" lon="-0.28255">
        <ele>-25.8</ele>
        <time>2017-11-12T11:01:18Z</time>
      </trkpt>
      <trkpt lat="44.9384" lon="-0.28256">
        <ele>-27.9</ele>
        <time>2017-11-12T11:01:24Z</time>
      </trkpt>
      <trkpt lat="44.93831" lon="-0.28256">
        <ele>-29.7</ele>
        <time>2017-11-12T11:01:29Z</time>
      </trkpt>
      <trkpt lat="44.93823" lon="-0.28258">
        <ele>-31.5</ele>
        <time>2017-11-12T11:01:34Z</time>
      </trkpt>
      <trkpt lat="44.93815" lon="-0.2826">
        <ele>-32.3</ele>
        <time>2017-11-12T11:01:39Z</time>
      </trkpt>
      <trkpt lat="44.93806" lon="-0.28262">
        <ele>-27.4</ele>
        <time>2017-11-12T11:01:46Z</time>
      </trkpt>
      <trkpt lat="44.93799" lon="-0.28266">
        <ele>-21.8</ele>
        <time>2017-11-12T11:01:52Z</time>
      </trkpt>
      <trkpt lat="44.93791" lon="-0.28268">
        <ele>-19.2</ele>
        <time>2017-11-12T11:01:58Z</time>
      </trkpt>
      <trkpt lat="44.93784" lon="-0.28272">
        <ele>-15.6</ele>
        <time>2017-11-12T11:02:02Z</time>
      </trkpt>
      <trkpt lat="44.93776" lon="-0.28274">
        <ele>-12.4</ele>
        <time>2017-11-12T11:02:07Z</time>
      </trkpt>
      <trkpt lat="44.93769" lon="-0.28277">
        <ele>-10</ele>
        <time>2017-11-12T11:02:12Z</time>
      </trkpt>
      <trkpt lat="44.93761" lon="-0.28278">
        <ele>-7</ele>
        <time>2017-11-12T11:02:19Z</time>
      </trkpt>
      <trkpt lat="44.93752" lon="-0.2828">
        <ele>-5.7</ele>
        <time>2017-11-12T11:02:25Z</time>
      </trkpt>
      <trkpt lat="44.93744" lon="-0.28283">
        <ele>-4.4</ele>
        <time>2017-11-12T11:02:31Z</time>
      </trkpt>
      <trkpt lat="44.93736" lon="-0.28283">
        <ele>-6.3</ele>
        <time>2017-11-12T11:02:37Z</time>
      </trkpt>
      <trkpt lat="44.93727" lon="-0.28282">
        <ele>-6</ele>
        <time>2017-11-12T11:02:44Z</time>
      </trkpt>
      <trkpt lat="44.93719" lon="-0.28283">
        <ele>-4.6</ele>
        <time>2017-11-12T11:02:50Z</time>
      </trkpt>
      <trkpt lat="44.93711" lon="-0.28282">
        <ele>-2.7</ele>
        <time>2017-11-12T11:02:57Z</time>
      </trkpt>
      <trkpt lat="44.93703" lon="-0.2828">
        <ele>-1.3</ele>
        <time>2017-11-12T11:03:04Z</time>
      </trkpt>
      <trkpt lat="44.93694" lon="-0.2828">
        <ele>-0.2</ele>
        <time>2017-11-12T11:03:11Z</time>
      </trkpt>
      <trkpt lat="44.93686" lon="-0.2828">
        <ele>1.8</ele>
        <time>2017-11-12T11:03:18Z</time>
      </trkpt>
      <trkpt lat="44.93678" lon="-0.2828">
        <ele>3.3</ele>
        <time>2017-11-12T11:03:24Z</time>
      </trkpt>
      <trkpt lat="44.93671" lon="-0.28278">
        <ele>1.6</ele>
        <time>2017-11-12T11:03:30Z</time>
      </trkpt>
      <trkpt lat="44.93662" lon="-0.28276">
        <ele>-3.3</ele>
        <time>2017-11-12T11:03:36Z</time>
      </trkpt>
      <trkpt lat="44.93655" lon="-0.28274">
        <ele>-8</ele>
        <time>2017-11-12T11:03:44Z</time>
      </trkpt>
      <trkpt lat="44.93646" lon="-0.28273">
        <ele>-5</ele>
        <time>2017-11-12T11:03:53Z</time>
      </trkpt>
      <trkpt lat="44.93637" lon="-0.28274">
        <ele>-5.8</ele>
        <time>2017-11-12T11:04:01Z</time>
      </trkpt>
      <trkpt lat="44.93629" lon="-0.28276">
        <ele>-4.7</ele>
        <time>2017-11-12T11:04:09Z</time>
      </trkpt>
      <trkpt lat="44.9362" lon="-0.28274">
        <ele>-19</ele>
        <time>2017-11-12T11:04:24Z</time>
      </trkpt>
      <trkpt lat="44.93612" lon="-0.2828">
        <ele>-20.3</ele>
        <time>2017-11-12T11:04:30Z</time>
      </trkpt>
      <trkpt lat="44.93604" lon="-0.28284">
        <ele>-26</ele>
        <time>2017-11-12T11:04:40Z</time>
      </trkpt>
      <trkpt lat="44.93596" lon="-0.2829">
        <ele>-28</ele>
        <time>2017-11-12T11:04:47Z</time>
      </trkpt>
      <trkpt lat="44.9359" lon="-0.28296">
        <ele>-27.3</ele>
        <time>2017-11-12T11:04:53Z</time>
      </trkpt>
      <trkpt lat="44.93583" lon="-0.28304">
        <ele>-29.7</ele>
        <time>2017-11-12T11:05:01Z</time>
      </trkpt>
      <trkpt lat="44.93576" lon="-0.2831">
        <ele>-28.4</ele>
        <time>2017-11-12T11:05:08Z</time>
      </trkpt>
      <trkpt lat="44.93568" lon="-0.28316">
        <ele>-27.2</ele>
        <time>2017-11-12T11:05:13Z</time>
      </trkpt>
      <trkpt lat="44.9356" lon="-0.28319">
        <ele>-25.2</ele>
        <time>2017-11-12T11:05:18Z</time>
      </trkpt>
      <trkpt lat="44.93551" lon="-0.2832">
        <ele>-21</ele>
        <time>2017-11-12T11:05:23Z</time>
      </trkpt>
      <trkpt lat="44.9354" lon="-0.28328">
        <ele>-11.6</ele>
        <time>2017-11-12T11:05:28Z</time>
      </trkpt>
      <trkpt lat="44.93533" lon="-0.28322">
        <ele>-16</ele>
        <time>2017-11-12T11:05:37Z</time>
      </trkpt>
      <trkpt lat="44.9353" lon="-0.28326">
        <ele>-11.4</ele>
        <time>2017-11-12T11:05:48Z</time>
      </trkpt>
      <trkpt lat="44.93519" lon="-0.28331">
        <ele>-6.1</ele>
        <time>2017-11-12T11:05:52Z</time>
      </trkpt>
      <trkpt lat="44.9351" lon="-0.28333">
        <ele>-1.3</ele>
        <time>2017-11-12T11:05:59Z</time>
      </trkpt>
      <trkpt lat="44.93502" lon="-0.28335">
        <ele>2.6</ele>
        <time>2017-11-12T11:06:09Z</time>
      </trkpt>
      <trkpt lat="44.93493" lon="-0.28337">
        <ele>7.7</ele>
        <time>2017-11-12T11:06:19Z</time>
      </trkpt>
      <trkpt lat="44.93484" lon="-0.28335">
        <ele>9.5</ele>
        <time>2017-11-12T11:06:27Z</time>
      </trkpt>
      <trkpt lat="44.93476" lon="-0.28336">
        <ele>9.8</ele>
        <time>2017-11-12T11:06:34Z</time>
      </trkpt>
      <trkpt lat="44.93468" lon="-0.28336">
        <ele>10.1</ele>
        <time>2017-11-12T11:06:41Z</time>
      </trkpt>
      <trkpt lat="44.9346" lon="-0.28335">
        <ele>9.5</ele>
        <time>2017-11-12T11:06:49Z</time>
      </trkpt>
      <trkpt lat="44.93451" lon="-0.28335">
        <ele>8.9</ele>
        <time>2017-11-12T11:06:57Z</time>
      </trkpt>
      <trkpt lat="44.93442" lon="-0.28337">
        <ele>8.4</ele>
        <time>2017-11-12T11:07:06Z</time>
      </trkpt>
      <trkpt lat="44.93436" lon="-0.28345">
        <ele>8.1</ele>
        <time>2017-11-12T11:07:16Z</time>
      </trkpt>
      <trkpt lat="44.93429" lon="-0.28352">
        <ele>8</ele>
        <time>2017-11-12T11:07:24Z</time>
      </trkpt>
      <trkpt lat="44.93422" lon="-0.28354">
        <ele>6.5</ele>
        <time>2017-11-12T11:07:31Z</time>
      </trkpt>
      <trkpt lat="44.93414" lon="-0.28352">
        <ele>4.5</ele>
        <time>2017-11-12T11:07:37Z</time>
      </trkpt>
      <trkpt lat="44.93406" lon="-0.28356">
        <ele>4.8</ele>
        <time>2017-11-12T11:07:43Z</time>
      </trkpt>
      <trkpt lat="44.93397" lon="-0.28353">
        <ele>5</ele>
        <time>2017-11-12T11:07:51Z</time>
      </trkpt>
      <trkpt lat="44.93391" lon="-0.28345">
        <ele>1.8</ele>
        <time>2017-11-12T11:08:08Z</time>
      </trkpt>
      <trkpt lat="44.93385" lon="-0.28337">
        <ele>2.6</ele>
        <time>2017-11-12T11:08:21Z</time>
      </trkpt>
      <trkpt lat="44.9338" lon="-0.28326">
        <ele>4</ele>
        <time>2017-11-12T11:08:31Z</time>
      </trkpt>
      <trkpt lat="44.93376" lon="-0.28315">
        <ele>6.2</ele>
        <time>2017-11-12T11:08:38Z</time>
      </trkpt>
      <trkpt lat="44.93372" lon="-0.28305">
        <ele>5</ele>
        <time>2017-11-12T11:08:46Z</time>
      </trkpt>
      <trkpt lat="44.93367" lon="-0.28297">
        <ele>4.8</ele>
        <time>2017-11-12T11:08:51Z</time>
      </trkpt>
      <trkpt lat="44.93361" lon="-0.28288">
        <ele>5.3</ele>
        <time>2017-11-12T11:08:56Z</time>
      </trkpt>
      <trkpt lat="44.93355" lon="-0.2828">
        <ele>5.8</ele>
        <time>2017-11-12T11:09:01Z</time>
      </trkpt>
      <trkpt lat="44.93348" lon="-0.28271">
        <ele>6.5</ele>
        <time>2017-11-12T11:09:06Z</time>
      </trkpt>
      <trkpt lat="44.93343" lon="-0.28263">
        <ele>6.4</ele>
        <time>2017-11-12T11:09:11Z</time>
      </trkpt>
      <trkpt lat="44.93336" lon="-0.28255">
        <ele>5.4</ele>
        <time>2017-11-12T11:09:18Z</time>
      </trkpt>
      <trkpt lat="44.9333" lon="-0.28248">
        <ele>4.3</ele>
        <time>2017-11-12T11:09:25Z</time>
      </trkpt>
      <trkpt lat="44.93323" lon="-0.28241">
        <ele>3.2</ele>
        <time>2017-11-12T11:09:32Z</time>
      </trkpt>
      <trkpt lat="44.93316" lon="-0.28237">
        <ele>2</ele>
        <time>2017-11-12T11:09:40Z</time>
      </trkpt>
      <trkpt lat="44.9331" lon="-0.2823">
        <ele>3.3</ele>
        <time>2017-11-12T11:09:45Z</time>
      </trkpt>
      <trkpt lat="44.93302" lon="-0.28232">
        <ele>1.2</ele>
        <time>2017-11-12T11:09:53Z</time>
      </trkpt>
      <trkpt lat="44.93296" lon="-0.2824">
        <ele>-0.3</ele>
        <time>2017-11-12T11:10:01Z</time>
      </trkpt>
      <trkpt lat="44.93291" lon="-0.28249">
        <ele>59.8</ele>
        <time>2017-11-12T11:10:08Z</time>
      </trkpt>
      <trkpt lat="44.93286" lon="-0.2826">
        <ele>0.4</ele>
        <time>2017-11-12T11:10:15Z</time>
      </trkpt>
      <trkpt lat="44.93282" lon="-0.28271">
        <ele>-1.1</ele>
        <time>2017-11-12T11:10:35Z</time>
      </trkpt>
      <trkpt lat="44.93277" lon="-0.2828">
        <ele>0.6</ele>
        <time>2017-11-12T11:10:44Z</time>
      </trkpt>
      <trkpt lat="44.93272" lon="-0.28289">
        <ele>61.9</ele>
        <time>2017-11-12T11:10:51Z</time>
      </trkpt>
      <trkpt lat="44.93267" lon="-0.28298">
        <ele>-2.3</ele>
        <time>2017-11-12T11:10:56Z</time>
      </trkpt>
      <trkpt lat="44.93263" lon="-0.28308">
        <ele>-0.6</ele>
        <time>2017-11-12T11:11:03Z</time>
      </trkpt>
      <trkpt lat="44.9326" lon="-0.28319">
        <ele>0.4</ele>
        <time>2017-11-12T11:11:12Z</time>
      </trkpt>
      <trkpt lat="44.93257" lon="-0.28331">
        <ele>0.9</ele>
        <time>2017-11-12T11:11:23Z</time>
      </trkpt>
      <trkpt lat="44.93254" lon="-0.28342">
        <ele>2.3</ele>
        <time>2017-11-12T11:11:34Z</time>
      </trkpt>
      <trkpt lat="44.93251" lon="-0.28352">
        <ele>2.7</ele>
        <time>2017-11-12T11:11:41Z</time>
      </trkpt>
      <trkpt lat="44.93249" lon="-0.28363">
        <ele>3.3</ele>
        <time>2017-11-12T11:11:48Z</time>
      </trkpt>
      <trkpt lat="44.93246" lon="-0.28375">
        <ele>3.7</ele>
        <time>2017-11-12T11:11:55Z</time>
      </trkpt>
      <trkpt lat="44.93245" lon="-0.28385">
        <ele>3.6</ele>
        <time>2017-11-12T11:12:00Z</time>
      </trkpt>
      <trkpt lat="44.93245" lon="-0.28397">
        <ele>4.2</ele>
        <time>2017-11-12T11:12:07Z</time>
      </trkpt>
      <trkpt lat="44.93246" lon="-0.28408">
        <ele>7.7</ele>
        <time>2017-11-12T11:12:14Z</time>
      </trkpt>
      <trkpt lat="44.93254" lon="-0.28414">
        <ele>8.5</ele>
        <time>2017-11-12T11:12:23Z</time>
      </trkpt>
      <trkpt lat="44.93262" lon="-0.28418">
        <ele>8</ele>
        <time>2017-11-12T11:12:32Z</time>
      </trkpt>
      <trkpt lat="44.9327" lon="-0.28422">
        <ele>7.4</ele>
        <time>2017-11-12T11:12:42Z</time>
      </trkpt>
      <trkpt lat="44.93278" lon="-0.28428">
        <ele>8</ele>
        <time>2017-11-12T11:12:54Z</time>
      </trkpt>
      <trkpt lat="44.9328" lon="-0.28428">
        <ele>7.2</ele>
        <time>2017-11-12T11:13:13Z</time>
      </trkpt>
      <trkpt lat="44.93288" lon="-0.28434">
        <ele>7.1</ele>
        <time>2017-11-12T11:13:17Z</time>
      </trkpt>
      <trkpt lat="44.93294" lon="-0.28434">
        <ele>8</ele>
        <time>2017-11-12T11:17:57Z</time>
      </trkpt>
    </trkseg>
  </trk>
</gpx>